<?xml version="1.0" encoding="UTF-8" standalone="no" ?>
<gpx xmlns="http://www.topografix.com/GPX/1/1" xmlns:xsi="http://www.w3.org/2001/XMLSchema-instance" xsi:schemaLocation="http://www.topografix.com/GPX/1/1 http://www.topografix.com/GPX/1/1/gpx.xsd" version="1.1" creator="VisuGPX - https://www.visugpx.com">
  <metadata>
    <name>2019-12-20 Villarzel Cabardes</name>
  </metadata>
  <trk>
    <name><![CDATA[2019-12-20 10:19:55-Original]]></name>
    <trkseg>
      <trkpt lat="43.27884" lon="2.45843">
        <ele>180.96</ele>
        <time>2019-12-20T07:16:27Z</time>
      </trkpt>
      <trkpt lat="43.27883" lon="2.45843">
        <ele>181.46</ele>
        <time>2019-12-20T07:16:37Z</time>
      </trkpt>
      <trkpt lat="43.27884" lon="2.45843">
        <ele>181.38</ele>
        <time>2019-12-20T07:16:47Z</time>
      </trkpt>
      <trkpt lat="43.27884" lon="2.45841">
        <ele>180.54</ele>
        <time>2019-12-20T07:16:57Z</time>
      </trkpt>
      <trkpt lat="43.27879" lon="2.45841">
        <ele>173.84</ele>
        <time>2019-12-20T07:17:07Z</time>
      </trkpt>
      <trkpt lat="43.27879" lon="2.4584">
        <ele>176.21</ele>
        <time>2019-12-20T07:17:17Z</time>
      </trkpt>
      <trkpt lat="43.27878" lon="2.4584">
        <ele>176.52</ele>
        <time>2019-12-20T07:17:27Z</time>
      </trkpt>
      <trkpt lat="43.27877" lon="2.45843">
        <ele>179.19</ele>
        <time>2019-12-20T07:17:37Z</time>
      </trkpt>
      <trkpt lat="43.27875" lon="2.45851">
        <ele>179.97</ele>
        <time>2019-12-20T07:17:47Z</time>
      </trkpt>
      <trkpt lat="43.27889" lon="2.45862">
        <ele>179.72</ele>
        <time>2019-12-20T07:17:57Z</time>
      </trkpt>
      <trkpt lat="43.27906" lon="2.45876">
        <ele>182.03</ele>
        <time>2019-12-20T07:18:07Z</time>
      </trkpt>
      <trkpt lat="43.27923" lon="2.4589">
        <ele>185.28</ele>
        <time>2019-12-20T07:18:17Z</time>
      </trkpt>
      <trkpt lat="43.27943" lon="2.45896">
        <ele>188</ele>
        <time>2019-12-20T07:18:27Z</time>
      </trkpt>
      <trkpt lat="43.27955" lon="2.45919">
        <ele>189.57</ele>
        <time>2019-12-20T07:18:37Z</time>
      </trkpt>
      <trkpt lat="43.27963" lon="2.45945">
        <ele>189.65</ele>
        <time>2019-12-20T07:18:47Z</time>
      </trkpt>
      <trkpt lat="43.2797" lon="2.45972">
        <ele>188.51</ele>
        <time>2019-12-20T07:18:57Z</time>
      </trkpt>
      <trkpt lat="43.27979" lon="2.46002">
        <ele>187.47</ele>
        <time>2019-12-20T07:19:07Z</time>
      </trkpt>
      <trkpt lat="43.27982" lon="2.46032">
        <ele>186.8</ele>
        <time>2019-12-20T07:19:17Z</time>
      </trkpt>
      <trkpt lat="43.27977" lon="2.46057">
        <ele>181.3</ele>
        <time>2019-12-20T07:19:27Z</time>
      </trkpt>
      <trkpt lat="43.27971" lon="2.46082">
        <ele>178.62</ele>
        <time>2019-12-20T07:19:37Z</time>
      </trkpt>
      <trkpt lat="43.27967" lon="2.46106">
        <ele>177.7</ele>
        <time>2019-12-20T07:19:47Z</time>
      </trkpt>
      <trkpt lat="43.27963" lon="2.46131">
        <ele>177.98</ele>
        <time>2019-12-20T07:19:57Z</time>
      </trkpt>
      <trkpt lat="43.27958" lon="2.46166">
        <ele>179.1</ele>
        <time>2019-12-20T07:20:07Z</time>
      </trkpt>
      <trkpt lat="43.27955" lon="2.46195">
        <ele>180.95</ele>
        <time>2019-12-20T07:20:17Z</time>
      </trkpt>
      <trkpt lat="43.27952" lon="2.46222">
        <ele>182.33</ele>
        <time>2019-12-20T07:20:27Z</time>
      </trkpt>
      <trkpt lat="43.27947" lon="2.46235">
        <ele>182</ele>
        <time>2019-12-20T07:20:37Z</time>
      </trkpt>
      <trkpt lat="43.2793" lon="2.46245">
        <ele>180.5</ele>
        <time>2019-12-20T07:20:47Z</time>
      </trkpt>
      <trkpt lat="43.2791" lon="2.46259">
        <ele>178.7</ele>
        <time>2019-12-20T07:20:57Z</time>
      </trkpt>
      <trkpt lat="43.27894" lon="2.46273">
        <ele>176.12</ele>
        <time>2019-12-20T07:21:07Z</time>
      </trkpt>
      <trkpt lat="43.27877" lon="2.46286">
        <ele>174.1</ele>
        <time>2019-12-20T07:21:17Z</time>
      </trkpt>
      <trkpt lat="43.27862" lon="2.46304">
        <ele>174.23</ele>
        <time>2019-12-20T07:21:27Z</time>
      </trkpt>
      <trkpt lat="43.27841" lon="2.46319">
        <ele>171.8</ele>
        <time>2019-12-20T07:21:37Z</time>
      </trkpt>
      <trkpt lat="43.27817" lon="2.46322">
        <ele>171</ele>
        <time>2019-12-20T07:21:47Z</time>
      </trkpt>
      <trkpt lat="43.27795" lon="2.46333">
        <ele>169.79</ele>
        <time>2019-12-20T07:21:57Z</time>
      </trkpt>
      <trkpt lat="43.27775" lon="2.46354">
        <ele>171.93</ele>
        <time>2019-12-20T07:22:07Z</time>
      </trkpt>
      <trkpt lat="43.27758" lon="2.46378">
        <ele>172.02</ele>
        <time>2019-12-20T07:22:17Z</time>
      </trkpt>
      <trkpt lat="43.27756" lon="2.46396">
        <ele>170.89</ele>
        <time>2019-12-20T07:22:27Z</time>
      </trkpt>
      <trkpt lat="43.27753" lon="2.46424">
        <ele>167.98</ele>
        <time>2019-12-20T07:22:37Z</time>
      </trkpt>
      <trkpt lat="43.27739" lon="2.46449">
        <ele>167.05</ele>
        <time>2019-12-20T07:22:47Z</time>
      </trkpt>
      <trkpt lat="43.2772" lon="2.4647">
        <ele>168.81</ele>
        <time>2019-12-20T07:22:57Z</time>
      </trkpt>
      <trkpt lat="43.27697" lon="2.46479">
        <ele>172.09</ele>
        <time>2019-12-20T07:23:07Z</time>
      </trkpt>
      <trkpt lat="43.27672" lon="2.46489">
        <ele>172.55</ele>
        <time>2019-12-20T07:23:17Z</time>
      </trkpt>
      <trkpt lat="43.27648" lon="2.46501">
        <ele>167.99</ele>
        <time>2019-12-20T07:23:27Z</time>
      </trkpt>
      <trkpt lat="43.27625" lon="2.46517">
        <ele>166.75</ele>
        <time>2019-12-20T07:23:37Z</time>
      </trkpt>
      <trkpt lat="43.276" lon="2.46528">
        <ele>161.88</ele>
        <time>2019-12-20T07:23:47Z</time>
      </trkpt>
      <trkpt lat="43.27577" lon="2.46537">
        <ele>160.99</ele>
        <time>2019-12-20T07:23:57Z</time>
      </trkpt>
      <trkpt lat="43.27557" lon="2.46543">
        <ele>166.6</ele>
        <time>2019-12-20T07:24:07Z</time>
      </trkpt>
      <trkpt lat="43.27535" lon="2.46554">
        <ele>173.52</ele>
        <time>2019-12-20T07:24:17Z</time>
      </trkpt>
      <trkpt lat="43.27517" lon="2.46563">
        <ele>177.42</ele>
        <time>2019-12-20T07:24:27Z</time>
      </trkpt>
      <trkpt lat="43.27504" lon="2.46576">
        <ele>181.76</ele>
        <time>2019-12-20T07:24:37Z</time>
      </trkpt>
      <trkpt lat="43.27503" lon="2.46577">
        <ele>182.62</ele>
        <time>2019-12-20T07:24:38Z</time>
      </trkpt>
      <trkpt lat="43.27498" lon="2.46605">
        <ele>183.32</ele>
        <time>2019-12-20T07:24:48Z</time>
      </trkpt>
      <trkpt lat="43.27493" lon="2.46636">
        <ele>182.74</ele>
        <time>2019-12-20T07:24:58Z</time>
      </trkpt>
      <trkpt lat="43.27485" lon="2.46669">
        <ele>183.11</ele>
        <time>2019-12-20T07:25:08Z</time>
      </trkpt>
      <trkpt lat="43.2747" lon="2.46696">
        <ele>183.58</ele>
        <time>2019-12-20T07:25:18Z</time>
      </trkpt>
      <trkpt lat="43.27463" lon="2.46709">
        <ele>184.7</ele>
        <time>2019-12-20T07:25:28Z</time>
      </trkpt>
      <trkpt lat="43.27451" lon="2.46737">
        <ele>183.45</ele>
        <time>2019-12-20T07:25:38Z</time>
      </trkpt>
      <trkpt lat="43.27436" lon="2.46765">
        <ele>180.47</ele>
        <time>2019-12-20T07:25:48Z</time>
      </trkpt>
      <trkpt lat="43.27417" lon="2.46788">
        <ele>176.75</ele>
        <time>2019-12-20T07:25:58Z</time>
      </trkpt>
      <trkpt lat="43.27411" lon="2.4682">
        <ele>174.89</ele>
        <time>2019-12-20T07:26:08Z</time>
      </trkpt>
      <trkpt lat="43.274" lon="2.46848">
        <ele>174.8</ele>
        <time>2019-12-20T07:26:18Z</time>
      </trkpt>
      <trkpt lat="43.27374" lon="2.46857">
        <ele>174.31</ele>
        <time>2019-12-20T07:26:28Z</time>
      </trkpt>
      <trkpt lat="43.27348" lon="2.46871">
        <ele>176.62</ele>
        <time>2019-12-20T07:26:38Z</time>
      </trkpt>
      <trkpt lat="43.27326" lon="2.46875">
        <ele>183.43</ele>
        <time>2019-12-20T07:26:48Z</time>
      </trkpt>
      <trkpt lat="43.27308" lon="2.4688">
        <ele>190.39</ele>
        <time>2019-12-20T07:26:58Z</time>
      </trkpt>
      <trkpt lat="43.27307" lon="2.46905">
        <ele>193.75</ele>
        <time>2019-12-20T07:27:08Z</time>
      </trkpt>
      <trkpt lat="43.27293" lon="2.46925">
        <ele>197.12</ele>
        <time>2019-12-20T07:27:18Z</time>
      </trkpt>
      <trkpt lat="43.27273" lon="2.46939">
        <ele>198.29</ele>
        <time>2019-12-20T07:27:28Z</time>
      </trkpt>
      <trkpt lat="43.27271" lon="2.46952">
        <ele>200.02</ele>
        <time>2019-12-20T07:27:38Z</time>
      </trkpt>
      <trkpt lat="43.27276" lon="2.46976">
        <ele>197</ele>
        <time>2019-12-20T07:27:48Z</time>
      </trkpt>
      <trkpt lat="43.27265" lon="2.47002">
        <ele>192.84</ele>
        <time>2019-12-20T07:27:58Z</time>
      </trkpt>
      <trkpt lat="43.27244" lon="2.4703">
        <ele>190.18</ele>
        <time>2019-12-20T07:28:08Z</time>
      </trkpt>
      <trkpt lat="43.2722" lon="2.47043">
        <ele>188.37</ele>
        <time>2019-12-20T07:28:18Z</time>
      </trkpt>
      <trkpt lat="43.27197" lon="2.47056">
        <ele>186.78</ele>
        <time>2019-12-20T07:28:28Z</time>
      </trkpt>
      <trkpt lat="43.27174" lon="2.47067">
        <ele>182.99</ele>
        <time>2019-12-20T07:28:38Z</time>
      </trkpt>
      <trkpt lat="43.27148" lon="2.47074">
        <ele>178.51</ele>
        <time>2019-12-20T07:28:48Z</time>
      </trkpt>
      <trkpt lat="43.2713" lon="2.47095">
        <ele>181.72</ele>
        <time>2019-12-20T07:28:58Z</time>
      </trkpt>
      <trkpt lat="43.27125" lon="2.47125">
        <ele>185.99</ele>
        <time>2019-12-20T07:29:08Z</time>
      </trkpt>
      <trkpt lat="43.27138" lon="2.47146">
        <ele>185.78</ele>
        <time>2019-12-20T07:29:18Z</time>
      </trkpt>
      <trkpt lat="43.27158" lon="2.47163">
        <ele>182.62</ele>
        <time>2019-12-20T07:29:28Z</time>
      </trkpt>
      <trkpt lat="43.2716" lon="2.47185">
        <ele>174.65</ele>
        <time>2019-12-20T07:29:38Z</time>
      </trkpt>
      <trkpt lat="43.27161" lon="2.47189">
        <ele>173.68</ele>
        <time>2019-12-20T07:29:48Z</time>
      </trkpt>
      <trkpt lat="43.27157" lon="2.47191">
        <ele>173.83</ele>
        <time>2019-12-20T07:29:58Z</time>
      </trkpt>
      <trkpt lat="43.27146" lon="2.472">
        <ele>175.84</ele>
        <time>2019-12-20T07:30:08Z</time>
      </trkpt>
      <trkpt lat="43.2713" lon="2.47206">
        <ele>171.95</ele>
        <time>2019-12-20T07:30:18Z</time>
      </trkpt>
      <trkpt lat="43.2711" lon="2.47223">
        <ele>161.38</ele>
        <time>2019-12-20T07:30:28Z</time>
      </trkpt>
      <trkpt lat="43.27093" lon="2.47239">
        <ele>159.43</ele>
        <time>2019-12-20T07:30:38Z</time>
      </trkpt>
      <trkpt lat="43.27078" lon="2.4726">
        <ele>157.81</ele>
        <time>2019-12-20T07:30:48Z</time>
      </trkpt>
      <trkpt lat="43.27063" lon="2.47284">
        <ele>160.93</ele>
        <time>2019-12-20T07:30:58Z</time>
      </trkpt>
      <trkpt lat="43.27045" lon="2.47313">
        <ele>165.37</ele>
        <time>2019-12-20T07:31:08Z</time>
      </trkpt>
      <trkpt lat="43.2704" lon="2.47345">
        <ele>170.49</ele>
        <time>2019-12-20T07:31:18Z</time>
      </trkpt>
      <trkpt lat="43.2705" lon="2.4737">
        <ele>167.56</ele>
        <time>2019-12-20T07:31:28Z</time>
      </trkpt>
      <trkpt lat="43.27054" lon="2.47378">
        <ele>165.05</ele>
        <time>2019-12-20T07:31:32Z</time>
      </trkpt>
      <trkpt lat="43.27054" lon="2.47401">
        <ele>163.61</ele>
        <time>2019-12-20T07:31:43Z</time>
      </trkpt>
      <trkpt lat="43.27052" lon="2.4741">
        <ele>162.77</ele>
        <time>2019-12-20T07:31:53Z</time>
      </trkpt>
      <trkpt lat="43.27051" lon="2.4743">
        <ele>161.61</ele>
        <time>2019-12-20T07:32:03Z</time>
      </trkpt>
      <trkpt lat="43.27043" lon="2.47461">
        <ele>166.59</ele>
        <time>2019-12-20T07:32:13Z</time>
      </trkpt>
      <trkpt lat="43.27024" lon="2.47488">
        <ele>168.34</ele>
        <time>2019-12-20T07:32:23Z</time>
      </trkpt>
      <trkpt lat="43.2702" lon="2.47495">
        <ele>169.81</ele>
        <time>2019-12-20T07:32:33Z</time>
      </trkpt>
      <trkpt lat="43.27016" lon="2.47498">
        <ele>170.9</ele>
        <time>2019-12-20T07:32:43Z</time>
      </trkpt>
      <trkpt lat="43.26997" lon="2.47507">
        <ele>170.02</ele>
        <time>2019-12-20T07:32:53Z</time>
      </trkpt>
      <trkpt lat="43.26974" lon="2.47532">
        <ele>171.5</ele>
        <time>2019-12-20T07:33:03Z</time>
      </trkpt>
      <trkpt lat="43.26956" lon="2.47567">
        <ele>178.24</ele>
        <time>2019-12-20T07:33:13Z</time>
      </trkpt>
      <trkpt lat="43.26945" lon="2.47599">
        <ele>183.89</ele>
        <time>2019-12-20T07:33:23Z</time>
      </trkpt>
      <trkpt lat="43.26925" lon="2.47616">
        <ele>183.16</ele>
        <time>2019-12-20T07:33:33Z</time>
      </trkpt>
      <trkpt lat="43.26904" lon="2.47611">
        <ele>180.34</ele>
        <time>2019-12-20T07:33:43Z</time>
      </trkpt>
      <trkpt lat="43.26895" lon="2.47633">
        <ele>178.51</ele>
        <time>2019-12-20T07:33:53Z</time>
      </trkpt>
      <trkpt lat="43.26881" lon="2.47661">
        <ele>178.1</ele>
        <time>2019-12-20T07:34:03Z</time>
      </trkpt>
      <trkpt lat="43.26871" lon="2.47684">
        <ele>178.68</ele>
        <time>2019-12-20T07:34:13Z</time>
      </trkpt>
      <trkpt lat="43.26871" lon="2.47711">
        <ele>177.16</ele>
        <time>2019-12-20T07:34:23Z</time>
      </trkpt>
      <trkpt lat="43.26868" lon="2.47742">
        <ele>176.38</ele>
        <time>2019-12-20T07:34:33Z</time>
      </trkpt>
      <trkpt lat="43.26861" lon="2.47776">
        <ele>175.91</ele>
        <time>2019-12-20T07:34:43Z</time>
      </trkpt>
      <trkpt lat="43.26866" lon="2.47798">
        <ele>175.08</ele>
        <time>2019-12-20T07:34:53Z</time>
      </trkpt>
      <trkpt lat="43.26849" lon="2.47816">
        <ele>168.17</ele>
        <time>2019-12-20T07:35:03Z</time>
      </trkpt>
      <trkpt lat="43.26835" lon="2.47804">
        <ele>162.64</ele>
        <time>2019-12-20T07:35:13Z</time>
      </trkpt>
      <trkpt lat="43.26832" lon="2.47803">
        <ele>163.24</ele>
        <time>2019-12-20T07:35:23Z</time>
      </trkpt>
      <trkpt lat="43.26828" lon="2.47808">
        <ele>163.36</ele>
        <time>2019-12-20T07:35:33Z</time>
      </trkpt>
      <trkpt lat="43.26831" lon="2.47829">
        <ele>162.95</ele>
        <time>2019-12-20T07:35:43Z</time>
      </trkpt>
      <trkpt lat="43.26836" lon="2.47851">
        <ele>160</ele>
        <time>2019-12-20T07:35:53Z</time>
      </trkpt>
      <trkpt lat="43.2684" lon="2.47867">
        <ele>156.7</ele>
        <time>2019-12-20T07:36:03Z</time>
      </trkpt>
      <trkpt lat="43.2684" lon="2.47878">
        <ele>155.74</ele>
        <time>2019-12-20T07:36:13Z</time>
      </trkpt>
      <trkpt lat="43.26853" lon="2.47882">
        <ele>155.33</ele>
        <time>2019-12-20T07:36:23Z</time>
      </trkpt>
      <trkpt lat="43.26861" lon="2.47889">
        <ele>154.88</ele>
        <time>2019-12-20T07:36:33Z</time>
      </trkpt>
      <trkpt lat="43.26847" lon="2.47896">
        <ele>155.05</ele>
        <time>2019-12-20T07:36:43Z</time>
      </trkpt>
      <trkpt lat="43.26828" lon="2.47907">
        <ele>153.32</ele>
        <time>2019-12-20T07:36:53Z</time>
      </trkpt>
      <trkpt lat="43.26815" lon="2.47918">
        <ele>152.6</ele>
        <time>2019-12-20T07:37:03Z</time>
      </trkpt>
      <trkpt lat="43.26799" lon="2.47922">
        <ele>151.86</ele>
        <time>2019-12-20T07:37:13Z</time>
      </trkpt>
      <trkpt lat="43.26776" lon="2.47925">
        <ele>149.61</ele>
        <time>2019-12-20T07:37:23Z</time>
      </trkpt>
      <trkpt lat="43.26755" lon="2.47923">
        <ele>151.53</ele>
        <time>2019-12-20T07:37:33Z</time>
      </trkpt>
      <trkpt lat="43.2674" lon="2.47915">
        <ele>154.27</ele>
        <time>2019-12-20T07:37:43Z</time>
      </trkpt>
      <trkpt lat="43.26724" lon="2.47915">
        <ele>157.56</ele>
        <time>2019-12-20T07:37:53Z</time>
      </trkpt>
      <trkpt lat="43.26713" lon="2.47904">
        <ele>160.31</ele>
        <time>2019-12-20T07:38:03Z</time>
      </trkpt>
      <trkpt lat="43.26705" lon="2.4789">
        <ele>162.82</ele>
        <time>2019-12-20T07:38:13Z</time>
      </trkpt>
      <trkpt lat="43.26696" lon="2.47893">
        <ele>164.85</ele>
        <time>2019-12-20T07:38:23Z</time>
      </trkpt>
      <trkpt lat="43.26695" lon="2.47905">
        <ele>166.77</ele>
        <time>2019-12-20T07:38:33Z</time>
      </trkpt>
      <trkpt lat="43.26694" lon="2.47924">
        <ele>166.47</ele>
        <time>2019-12-20T07:38:43Z</time>
      </trkpt>
      <trkpt lat="43.26688" lon="2.47951">
        <ele>164.2</ele>
        <time>2019-12-20T07:38:53Z</time>
      </trkpt>
      <trkpt lat="43.26678" lon="2.47986">
        <ele>160.53</ele>
        <time>2019-12-20T07:39:03Z</time>
      </trkpt>
      <trkpt lat="43.26667" lon="2.48019">
        <ele>157.94</ele>
        <time>2019-12-20T07:39:13Z</time>
      </trkpt>
      <trkpt lat="43.26664" lon="2.48048">
        <ele>156.8</ele>
        <time>2019-12-20T07:39:23Z</time>
      </trkpt>
      <trkpt lat="43.26646" lon="2.48076">
        <ele>154.03</ele>
        <time>2019-12-20T07:39:33Z</time>
      </trkpt>
      <trkpt lat="43.2663" lon="2.48104">
        <ele>156.84</ele>
        <time>2019-12-20T07:39:43Z</time>
      </trkpt>
      <trkpt lat="43.26628" lon="2.48107">
        <ele>157.15</ele>
        <time>2019-12-20T07:39:44Z</time>
      </trkpt>
      <trkpt lat="43.26611" lon="2.48139">
        <ele>159.45</ele>
        <time>2019-12-20T07:39:55Z</time>
      </trkpt>
      <trkpt lat="43.26599" lon="2.48169">
        <ele>159.39</ele>
        <time>2019-12-20T07:40:05Z</time>
      </trkpt>
      <trkpt lat="43.2659" lon="2.48201">
        <ele>158.66</ele>
        <time>2019-12-20T07:40:15Z</time>
      </trkpt>
      <trkpt lat="43.26579" lon="2.48234">
        <ele>158.32</ele>
        <time>2019-12-20T07:40:25Z</time>
      </trkpt>
      <trkpt lat="43.26565" lon="2.48265">
        <ele>158.99</ele>
        <time>2019-12-20T07:40:35Z</time>
      </trkpt>
      <trkpt lat="43.2655" lon="2.48295">
        <ele>156.5</ele>
        <time>2019-12-20T07:40:45Z</time>
      </trkpt>
      <trkpt lat="43.26541" lon="2.48321">
        <ele>154.53</ele>
        <time>2019-12-20T07:40:55Z</time>
      </trkpt>
      <trkpt lat="43.26535" lon="2.48327">
        <ele>153.62</ele>
        <time>2019-12-20T07:41:05Z</time>
      </trkpt>
      <trkpt lat="43.26535" lon="2.48337">
        <ele>153.4</ele>
        <time>2019-12-20T07:41:15Z</time>
      </trkpt>
      <trkpt lat="43.26554" lon="2.48352">
        <ele>152.37</ele>
        <time>2019-12-20T07:41:25Z</time>
      </trkpt>
      <trkpt lat="43.26574" lon="2.48366">
        <ele>151.29</ele>
        <time>2019-12-20T07:41:35Z</time>
      </trkpt>
      <trkpt lat="43.26594" lon="2.48381">
        <ele>150.94</ele>
        <time>2019-12-20T07:41:45Z</time>
      </trkpt>
      <trkpt lat="43.26612" lon="2.48399">
        <ele>153.1</ele>
        <time>2019-12-20T07:41:55Z</time>
      </trkpt>
      <trkpt lat="43.26621" lon="2.48421">
        <ele>154.6</ele>
        <time>2019-12-20T07:42:05Z</time>
      </trkpt>
      <trkpt lat="43.26612" lon="2.48448">
        <ele>154.88</ele>
        <time>2019-12-20T07:42:15Z</time>
      </trkpt>
      <trkpt lat="43.26614" lon="2.48479">
        <ele>154.21</ele>
        <time>2019-12-20T07:42:25Z</time>
      </trkpt>
      <trkpt lat="43.26609" lon="2.48508">
        <ele>152.85</ele>
        <time>2019-12-20T07:42:35Z</time>
      </trkpt>
      <trkpt lat="43.26598" lon="2.48537">
        <ele>153.62</ele>
        <time>2019-12-20T07:42:45Z</time>
      </trkpt>
      <trkpt lat="43.26587" lon="2.48566">
        <ele>154.26</ele>
        <time>2019-12-20T07:42:55Z</time>
      </trkpt>
      <trkpt lat="43.26576" lon="2.48594">
        <ele>154.96</ele>
        <time>2019-12-20T07:43:05Z</time>
      </trkpt>
      <trkpt lat="43.26564" lon="2.48624">
        <ele>155.7</ele>
        <time>2019-12-20T07:43:15Z</time>
      </trkpt>
      <trkpt lat="43.26552" lon="2.48651">
        <ele>157.09</ele>
        <time>2019-12-20T07:43:25Z</time>
      </trkpt>
      <trkpt lat="43.26539" lon="2.48679">
        <ele>158.6</ele>
        <time>2019-12-20T07:43:35Z</time>
      </trkpt>
      <trkpt lat="43.26536" lon="2.48695">
        <ele>160.52</ele>
        <time>2019-12-20T07:43:45Z</time>
      </trkpt>
      <trkpt lat="43.26545" lon="2.48689">
        <ele>161.93</ele>
        <time>2019-12-20T07:43:55Z</time>
      </trkpt>
      <trkpt lat="43.26559" lon="2.48669">
        <ele>163.8</ele>
        <time>2019-12-20T07:44:05Z</time>
      </trkpt>
      <trkpt lat="43.26575" lon="2.48653">
        <ele>167.13</ele>
        <time>2019-12-20T07:44:15Z</time>
      </trkpt>
      <trkpt lat="43.26586" lon="2.48653">
        <ele>167.26</ele>
        <time>2019-12-20T07:44:25Z</time>
      </trkpt>
      <trkpt lat="43.2659" lon="2.48636">
        <ele>169.07</ele>
        <time>2019-12-20T07:44:35Z</time>
      </trkpt>
      <trkpt lat="43.26602" lon="2.48619">
        <ele>169.48</ele>
        <time>2019-12-20T07:44:45Z</time>
      </trkpt>
      <trkpt lat="43.26613" lon="2.486">
        <ele>168.8</ele>
        <time>2019-12-20T07:44:55Z</time>
      </trkpt>
      <trkpt lat="43.26631" lon="2.48592">
        <ele>164.02</ele>
        <time>2019-12-20T07:45:05Z</time>
      </trkpt>
      <trkpt lat="43.26648" lon="2.48585">
        <ele>160.06</ele>
        <time>2019-12-20T07:45:15Z</time>
      </trkpt>
      <trkpt lat="43.26659" lon="2.48587">
        <ele>157.94</ele>
        <time>2019-12-20T07:45:25Z</time>
      </trkpt>
      <trkpt lat="43.26676" lon="2.48584">
        <ele>156.05</ele>
        <time>2019-12-20T07:45:35Z</time>
      </trkpt>
      <trkpt lat="43.2669" lon="2.48585">
        <ele>148.1</ele>
        <time>2019-12-20T07:45:45Z</time>
      </trkpt>
      <trkpt lat="43.26708" lon="2.48592">
        <ele>138.77</ele>
        <time>2019-12-20T07:45:55Z</time>
      </trkpt>
      <trkpt lat="43.26708" lon="2.48618">
        <ele>132.44</ele>
        <time>2019-12-20T07:46:05Z</time>
      </trkpt>
      <trkpt lat="43.2671" lon="2.48644">
        <ele>129.41</ele>
        <time>2019-12-20T07:46:15Z</time>
      </trkpt>
      <trkpt lat="43.26725" lon="2.48652">
        <ele>124.67</ele>
        <time>2019-12-20T07:46:25Z</time>
      </trkpt>
      <trkpt lat="43.2675" lon="2.48667">
        <ele>124.13</ele>
        <time>2019-12-20T07:46:35Z</time>
      </trkpt>
      <trkpt lat="43.26771" lon="2.48684">
        <ele>121.92</ele>
        <time>2019-12-20T07:46:45Z</time>
      </trkpt>
      <trkpt lat="43.26783" lon="2.48714">
        <ele>124.71</ele>
        <time>2019-12-20T07:46:55Z</time>
      </trkpt>
      <trkpt lat="43.26788" lon="2.4873">
        <ele>124.95</ele>
        <time>2019-12-20T07:47:05Z</time>
      </trkpt>
      <trkpt lat="43.2679" lon="2.48739">
        <ele>125.18</ele>
        <time>2019-12-20T07:47:11Z</time>
      </trkpt>
      <trkpt lat="43.26794" lon="2.48753">
        <ele>124.05</ele>
        <time>2019-12-20T07:47:22Z</time>
      </trkpt>
      <trkpt lat="43.26799" lon="2.48771">
        <ele>122.81</ele>
        <time>2019-12-20T07:47:32Z</time>
      </trkpt>
      <trkpt lat="43.26805" lon="2.48798">
        <ele>121.98</ele>
        <time>2019-12-20T07:47:42Z</time>
      </trkpt>
      <trkpt lat="43.26816" lon="2.48826">
        <ele>122.61</ele>
        <time>2019-12-20T07:47:52Z</time>
      </trkpt>
      <trkpt lat="43.26828" lon="2.48852">
        <ele>124.56</ele>
        <time>2019-12-20T07:48:02Z</time>
      </trkpt>
      <trkpt lat="43.26838" lon="2.4888">
        <ele>126.08</ele>
        <time>2019-12-20T07:48:12Z</time>
      </trkpt>
      <trkpt lat="43.26847" lon="2.48905">
        <ele>122.92</ele>
        <time>2019-12-20T07:48:22Z</time>
      </trkpt>
      <trkpt lat="43.26862" lon="2.48932">
        <ele>119.05</ele>
        <time>2019-12-20T07:48:32Z</time>
      </trkpt>
      <trkpt lat="43.26877" lon="2.48935">
        <ele>115.56</ele>
        <time>2019-12-20T07:48:42Z</time>
      </trkpt>
      <trkpt lat="43.26896" lon="2.48927">
        <ele>114.17</ele>
        <time>2019-12-20T07:48:52Z</time>
      </trkpt>
      <trkpt lat="43.2692" lon="2.48916">
        <ele>117.28</ele>
        <time>2019-12-20T07:49:02Z</time>
      </trkpt>
      <trkpt lat="43.26939" lon="2.48908">
        <ele>120.21</ele>
        <time>2019-12-20T07:49:12Z</time>
      </trkpt>
      <trkpt lat="43.26959" lon="2.48913">
        <ele>122.4</ele>
        <time>2019-12-20T07:49:22Z</time>
      </trkpt>
      <trkpt lat="43.2698" lon="2.4891">
        <ele>126.12</ele>
        <time>2019-12-20T07:49:32Z</time>
      </trkpt>
      <trkpt lat="43.26996" lon="2.48899">
        <ele>130.13</ele>
        <time>2019-12-20T07:49:42Z</time>
      </trkpt>
      <trkpt lat="43.27012" lon="2.48887">
        <ele>133.62</ele>
        <time>2019-12-20T07:49:52Z</time>
      </trkpt>
      <trkpt lat="43.27028" lon="2.48882">
        <ele>135.22</ele>
        <time>2019-12-20T07:50:02Z</time>
      </trkpt>
      <trkpt lat="43.27043" lon="2.48885">
        <ele>135.5</ele>
        <time>2019-12-20T07:50:12Z</time>
      </trkpt>
      <trkpt lat="43.2706" lon="2.48879">
        <ele>137.15</ele>
        <time>2019-12-20T07:50:22Z</time>
      </trkpt>
      <trkpt lat="43.27076" lon="2.48887">
        <ele>137.76</ele>
        <time>2019-12-20T07:50:32Z</time>
      </trkpt>
      <trkpt lat="43.271" lon="2.48891">
        <ele>135.06</ele>
        <time>2019-12-20T07:50:42Z</time>
      </trkpt>
      <trkpt lat="43.27114" lon="2.48864">
        <ele>130.06</ele>
        <time>2019-12-20T07:50:52Z</time>
      </trkpt>
      <trkpt lat="43.2713" lon="2.4884">
        <ele>127.77</ele>
        <time>2019-12-20T07:51:02Z</time>
      </trkpt>
      <trkpt lat="43.2715" lon="2.48822">
        <ele>128.61</ele>
        <time>2019-12-20T07:51:12Z</time>
      </trkpt>
      <trkpt lat="43.27171" lon="2.48807">
        <ele>130.59</ele>
        <time>2019-12-20T07:51:22Z</time>
      </trkpt>
      <trkpt lat="43.27192" lon="2.48797">
        <ele>131.2</ele>
        <time>2019-12-20T07:51:32Z</time>
      </trkpt>
      <trkpt lat="43.27213" lon="2.48788">
        <ele>129.61</ele>
        <time>2019-12-20T07:51:42Z</time>
      </trkpt>
      <trkpt lat="43.27234" lon="2.48779">
        <ele>128.01</ele>
        <time>2019-12-20T07:51:52Z</time>
      </trkpt>
      <trkpt lat="43.27259" lon="2.48762">
        <ele>124.89</ele>
        <time>2019-12-20T07:52:02Z</time>
      </trkpt>
      <trkpt lat="43.27284" lon="2.48751">
        <ele>124.25</ele>
        <time>2019-12-20T07:52:12Z</time>
      </trkpt>
      <trkpt lat="43.27302" lon="2.48766">
        <ele>122.53</ele>
        <time>2019-12-20T07:52:22Z</time>
      </trkpt>
      <trkpt lat="43.27329" lon="2.48785">
        <ele>112.68</ele>
        <time>2019-12-20T07:52:32Z</time>
      </trkpt>
      <trkpt lat="43.2735" lon="2.48802">
        <ele>111.3</ele>
        <time>2019-12-20T07:52:42Z</time>
      </trkpt>
      <trkpt lat="43.27369" lon="2.48817">
        <ele>111.93</ele>
        <time>2019-12-20T07:52:52Z</time>
      </trkpt>
      <trkpt lat="43.27362" lon="2.48842">
        <ele>113.15</ele>
        <time>2019-12-20T07:53:02Z</time>
      </trkpt>
      <trkpt lat="43.27341" lon="2.4886">
        <ele>112.7</ele>
        <time>2019-12-20T07:53:12Z</time>
      </trkpt>
      <trkpt lat="43.27317" lon="2.48876">
        <ele>112.42</ele>
        <time>2019-12-20T07:53:22Z</time>
      </trkpt>
      <trkpt lat="43.27294" lon="2.48892">
        <ele>108.34</ele>
        <time>2019-12-20T07:53:32Z</time>
      </trkpt>
      <trkpt lat="43.27276" lon="2.48915">
        <ele>105.81</ele>
        <time>2019-12-20T07:53:42Z</time>
      </trkpt>
      <trkpt lat="43.27261" lon="2.48945">
        <ele>106.21</ele>
        <time>2019-12-20T07:53:52Z</time>
      </trkpt>
      <trkpt lat="43.27252" lon="2.48971">
        <ele>107.58</ele>
        <time>2019-12-20T07:54:00Z</time>
      </trkpt>
      <trkpt lat="43.27239" lon="2.49007">
        <ele>109.42</ele>
        <time>2019-12-20T07:54:11Z</time>
      </trkpt>
      <trkpt lat="43.27228" lon="2.49043">
        <ele>111.66</ele>
        <time>2019-12-20T07:54:21Z</time>
      </trkpt>
      <trkpt lat="43.27228" lon="2.4908">
        <ele>113.06</ele>
        <time>2019-12-20T07:54:31Z</time>
      </trkpt>
      <trkpt lat="43.27237" lon="2.49114">
        <ele>112.67</ele>
        <time>2019-12-20T07:54:41Z</time>
      </trkpt>
      <trkpt lat="43.27244" lon="2.49148">
        <ele>115.17</ele>
        <time>2019-12-20T07:54:51Z</time>
      </trkpt>
      <trkpt lat="43.27244" lon="2.49187">
        <ele>114.73</ele>
        <time>2019-12-20T07:55:01Z</time>
      </trkpt>
      <trkpt lat="43.27237" lon="2.49224">
        <ele>112.88</ele>
        <time>2019-12-20T07:55:11Z</time>
      </trkpt>
      <trkpt lat="43.27226" lon="2.4926">
        <ele>108.32</ele>
        <time>2019-12-20T07:55:21Z</time>
      </trkpt>
      <trkpt lat="43.27212" lon="2.49295">
        <ele>106.24</ele>
        <time>2019-12-20T07:55:31Z</time>
      </trkpt>
      <trkpt lat="43.27198" lon="2.49328">
        <ele>105.22</ele>
        <time>2019-12-20T07:55:41Z</time>
      </trkpt>
      <trkpt lat="43.27183" lon="2.49361">
        <ele>105.61</ele>
        <time>2019-12-20T07:55:51Z</time>
      </trkpt>
      <trkpt lat="43.27169" lon="2.49393">
        <ele>104.54</ele>
        <time>2019-12-20T07:56:01Z</time>
      </trkpt>
      <trkpt lat="43.27163" lon="2.49428">
        <ele>103.42</ele>
        <time>2019-12-20T07:56:11Z</time>
      </trkpt>
      <trkpt lat="43.27168" lon="2.4946">
        <ele>104.82</ele>
        <time>2019-12-20T07:56:21Z</time>
      </trkpt>
      <trkpt lat="43.27172" lon="2.49482">
        <ele>105.99</ele>
        <time>2019-12-20T07:56:31Z</time>
      </trkpt>
      <trkpt lat="43.27174" lon="2.49502">
        <ele>105.38</ele>
        <time>2019-12-20T07:56:41Z</time>
      </trkpt>
      <trkpt lat="43.27176" lon="2.4952">
        <ele>104.56</ele>
        <time>2019-12-20T07:56:51Z</time>
      </trkpt>
      <trkpt lat="43.27175" lon="2.4955">
        <ele>103.85</ele>
        <time>2019-12-20T07:57:01Z</time>
      </trkpt>
      <trkpt lat="43.2717" lon="2.49585">
        <ele>103.71</ele>
        <time>2019-12-20T07:57:11Z</time>
      </trkpt>
      <trkpt lat="43.27163" lon="2.4962">
        <ele>103.78</ele>
        <time>2019-12-20T07:57:21Z</time>
      </trkpt>
      <trkpt lat="43.27165" lon="2.49658">
        <ele>105.39</ele>
        <time>2019-12-20T07:57:31Z</time>
      </trkpt>
      <trkpt lat="43.27169" lon="2.49695">
        <ele>106.28</ele>
        <time>2019-12-20T07:57:41Z</time>
      </trkpt>
      <trkpt lat="43.27175" lon="2.49732">
        <ele>106.77</ele>
        <time>2019-12-20T07:57:51Z</time>
      </trkpt>
      <trkpt lat="43.27188" lon="2.49768">
        <ele>107.76</ele>
        <time>2019-12-20T07:58:01Z</time>
      </trkpt>
      <trkpt lat="43.27205" lon="2.49792">
        <ele>106.15</ele>
        <time>2019-12-20T07:58:11Z</time>
      </trkpt>
      <trkpt lat="43.27223" lon="2.49816">
        <ele>104.53</ele>
        <time>2019-12-20T07:58:21Z</time>
      </trkpt>
      <trkpt lat="43.27225" lon="2.49846">
        <ele>104.1</ele>
        <time>2019-12-20T07:58:31Z</time>
      </trkpt>
      <trkpt lat="43.27218" lon="2.49876">
        <ele>104.25</ele>
        <time>2019-12-20T07:58:41Z</time>
      </trkpt>
      <trkpt lat="43.27215" lon="2.49903">
        <ele>100.2</ele>
        <time>2019-12-20T07:58:51Z</time>
      </trkpt>
      <trkpt lat="43.272" lon="2.49924">
        <ele>99.75</ele>
        <time>2019-12-20T07:59:01Z</time>
      </trkpt>
      <trkpt lat="43.27187" lon="2.49944">
        <ele>98.14</ele>
        <time>2019-12-20T07:59:11Z</time>
      </trkpt>
      <trkpt lat="43.27184" lon="2.49966">
        <ele>97.69</ele>
        <time>2019-12-20T07:59:21Z</time>
      </trkpt>
      <trkpt lat="43.27185" lon="2.49991">
        <ele>98.58</ele>
        <time>2019-12-20T07:59:31Z</time>
      </trkpt>
      <trkpt lat="43.27189" lon="2.50017">
        <ele>99.71</ele>
        <time>2019-12-20T07:59:41Z</time>
      </trkpt>
      <trkpt lat="43.27191" lon="2.50035">
        <ele>97.63</ele>
        <time>2019-12-20T07:59:51Z</time>
      </trkpt>
      <trkpt lat="43.27192" lon="2.50038">
        <ele>99.32</ele>
        <time>2019-12-20T08:00:01Z</time>
      </trkpt>
      <trkpt lat="43.27197" lon="2.50032">
        <ele>99.95</ele>
        <time>2019-12-20T08:00:11Z</time>
      </trkpt>
      <trkpt lat="43.27204" lon="2.50013">
        <ele>101.84</ele>
        <time>2019-12-20T08:00:21Z</time>
      </trkpt>
      <trkpt lat="43.27219" lon="2.50012">
        <ele>104.07</ele>
        <time>2019-12-20T08:00:31Z</time>
      </trkpt>
      <trkpt lat="43.27225" lon="2.50012">
        <ele>105.79</ele>
        <time>2019-12-20T08:00:36Z</time>
      </trkpt>
      <trkpt lat="43.27238" lon="2.50009">
        <ele>104.44</ele>
        <time>2019-12-20T08:00:47Z</time>
      </trkpt>
      <trkpt lat="43.27252" lon="2.49999">
        <ele>102.76</ele>
        <time>2019-12-20T08:00:57Z</time>
      </trkpt>
      <trkpt lat="43.27253" lon="2.49981">
        <ele>101.2</ele>
        <time>2019-12-20T08:01:07Z</time>
      </trkpt>
      <trkpt lat="43.27254" lon="2.49974">
        <ele>102.92</ele>
        <time>2019-12-20T08:01:17Z</time>
      </trkpt>
      <trkpt lat="43.27256" lon="2.49972">
        <ele>105.61</ele>
        <time>2019-12-20T08:01:27Z</time>
      </trkpt>
      <trkpt lat="43.27255" lon="2.4997">
        <ele>108.18</ele>
        <time>2019-12-20T08:01:37Z</time>
      </trkpt>
      <trkpt lat="43.27253" lon="2.49968">
        <ele>110.87</ele>
        <time>2019-12-20T08:01:47Z</time>
      </trkpt>
      <trkpt lat="43.27253" lon="2.49968">
        <ele>113.09</ele>
        <time>2019-12-20T08:01:57Z</time>
      </trkpt>
      <trkpt lat="43.27253" lon="2.4997">
        <ele>114.81</ele>
        <time>2019-12-20T08:02:07Z</time>
      </trkpt>
      <trkpt lat="43.27252" lon="2.49969">
        <ele>113.99</ele>
        <time>2019-12-20T08:02:17Z</time>
      </trkpt>
      <trkpt lat="43.27253" lon="2.49968">
        <ele>115.29</ele>
        <time>2019-12-20T08:02:27Z</time>
      </trkpt>
      <trkpt lat="43.27254" lon="2.49968">
        <ele>117.47</ele>
        <time>2019-12-20T08:02:37Z</time>
      </trkpt>
      <trkpt lat="43.27255" lon="2.49968">
        <ele>118.71</ele>
        <time>2019-12-20T08:02:47Z</time>
      </trkpt>
      <trkpt lat="43.27257" lon="2.4997">
        <ele>119.61</ele>
        <time>2019-12-20T08:02:57Z</time>
      </trkpt>
      <trkpt lat="43.27257" lon="2.49972">
        <ele>121.39</ele>
        <time>2019-12-20T08:03:07Z</time>
      </trkpt>
      <trkpt lat="43.27256" lon="2.49974">
        <ele>122.38</ele>
        <time>2019-12-20T08:03:17Z</time>
      </trkpt>
      <trkpt lat="43.27258" lon="2.49976">
        <ele>122.63</ele>
        <time>2019-12-20T08:03:27Z</time>
      </trkpt>
      <trkpt lat="43.27255" lon="2.49978">
        <ele>123.22</ele>
        <time>2019-12-20T08:03:37Z</time>
      </trkpt>
      <trkpt lat="43.27253" lon="2.49977">
        <ele>124.01</ele>
        <time>2019-12-20T08:03:47Z</time>
      </trkpt>
      <trkpt lat="43.27252" lon="2.49976">
        <ele>125.32</ele>
        <time>2019-12-20T08:03:57Z</time>
      </trkpt>
      <trkpt lat="43.2725" lon="2.49973">
        <ele>125.73</ele>
        <time>2019-12-20T08:04:07Z</time>
      </trkpt>
      <trkpt lat="43.27247" lon="2.49968">
        <ele>124.77</ele>
        <time>2019-12-20T08:04:17Z</time>
      </trkpt>
      <trkpt lat="43.27249" lon="2.49968">
        <ele>125.08</ele>
        <time>2019-12-20T08:04:27Z</time>
      </trkpt>
      <trkpt lat="43.27252" lon="2.49967">
        <ele>124.28</ele>
        <time>2019-12-20T08:04:37Z</time>
      </trkpt>
      <trkpt lat="43.27254" lon="2.49967">
        <ele>123.51</ele>
        <time>2019-12-20T08:04:47Z</time>
      </trkpt>
      <trkpt lat="43.27253" lon="2.49966">
        <ele>123.29</ele>
        <time>2019-12-20T08:04:57Z</time>
      </trkpt>
      <trkpt lat="43.27251" lon="2.49964">
        <ele>123.14</ele>
        <time>2019-12-20T08:05:07Z</time>
      </trkpt>
      <trkpt lat="43.27254" lon="2.49968">
        <ele>123.53</ele>
        <time>2019-12-20T08:05:17Z</time>
      </trkpt>
      <trkpt lat="43.27253" lon="2.49964">
        <ele>124.12</ele>
        <time>2019-12-20T08:05:27Z</time>
      </trkpt>
      <trkpt lat="43.27252" lon="2.49957">
        <ele>124.36</ele>
        <time>2019-12-20T08:05:37Z</time>
      </trkpt>
      <trkpt lat="43.27252" lon="2.49953">
        <ele>124.19</ele>
        <time>2019-12-20T08:05:47Z</time>
      </trkpt>
      <trkpt lat="43.27257" lon="2.4995">
        <ele>123.67</ele>
        <time>2019-12-20T08:05:57Z</time>
      </trkpt>
      <trkpt lat="43.27264" lon="2.49949">
        <ele>123.59</ele>
        <time>2019-12-20T08:06:07Z</time>
      </trkpt>
      <trkpt lat="43.27266" lon="2.49948">
        <ele>124.79</ele>
        <time>2019-12-20T08:06:17Z</time>
      </trkpt>
      <trkpt lat="43.27269" lon="2.49944">
        <ele>127.92</ele>
        <time>2019-12-20T08:06:27Z</time>
      </trkpt>
      <trkpt lat="43.27271" lon="2.49942">
        <ele>128.43</ele>
        <time>2019-12-20T08:06:37Z</time>
      </trkpt>
      <trkpt lat="43.27279" lon="2.49936">
        <ele>127.8</ele>
        <time>2019-12-20T08:06:47Z</time>
      </trkpt>
      <trkpt lat="43.27292" lon="2.49929">
        <ele>127.51</ele>
        <time>2019-12-20T08:06:57Z</time>
      </trkpt>
      <trkpt lat="43.27305" lon="2.49923">
        <ele>126.51</ele>
        <time>2019-12-20T08:07:07Z</time>
      </trkpt>
      <trkpt lat="43.27313" lon="2.49909">
        <ele>127.62</ele>
        <time>2019-12-20T08:07:17Z</time>
      </trkpt>
      <trkpt lat="43.27323" lon="2.49896">
        <ele>128.27</ele>
        <time>2019-12-20T08:07:27Z</time>
      </trkpt>
      <trkpt lat="43.27332" lon="2.49898">
        <ele>129.3</ele>
        <time>2019-12-20T08:07:37Z</time>
      </trkpt>
      <trkpt lat="43.27341" lon="2.49894">
        <ele>132.6</ele>
        <time>2019-12-20T08:07:47Z</time>
      </trkpt>
      <trkpt lat="43.27351" lon="2.49885">
        <ele>136.17</ele>
        <time>2019-12-20T08:07:57Z</time>
      </trkpt>
      <trkpt lat="43.27365" lon="2.4988">
        <ele>139.02</ele>
        <time>2019-12-20T08:08:07Z</time>
      </trkpt>
      <trkpt lat="43.2738" lon="2.49875">
        <ele>144.07</ele>
        <time>2019-12-20T08:08:17Z</time>
      </trkpt>
      <trkpt lat="43.27391" lon="2.49884">
        <ele>146.37</ele>
        <time>2019-12-20T08:08:27Z</time>
      </trkpt>
      <trkpt lat="43.27402" lon="2.49893">
        <ele>146.99</ele>
        <time>2019-12-20T08:08:37Z</time>
      </trkpt>
      <trkpt lat="43.2741" lon="2.49904">
        <ele>146.39</ele>
        <time>2019-12-20T08:08:47Z</time>
      </trkpt>
      <trkpt lat="43.27422" lon="2.49914">
        <ele>143.45</ele>
        <time>2019-12-20T08:08:57Z</time>
      </trkpt>
      <trkpt lat="43.27434" lon="2.49928">
        <ele>134.76</ele>
        <time>2019-12-20T08:09:07Z</time>
      </trkpt>
      <trkpt lat="43.27444" lon="2.49946">
        <ele>124.98</ele>
        <time>2019-12-20T08:09:17Z</time>
      </trkpt>
      <trkpt lat="43.27455" lon="2.49966">
        <ele>117.88</ele>
        <time>2019-12-20T08:09:27Z</time>
      </trkpt>
      <trkpt lat="43.27468" lon="2.49987">
        <ele>113.33</ele>
        <time>2019-12-20T08:09:37Z</time>
      </trkpt>
      <trkpt lat="43.27485" lon="2.49993">
        <ele>111.67</ele>
        <time>2019-12-20T08:09:47Z</time>
      </trkpt>
      <trkpt lat="43.2751" lon="2.49991">
        <ele>121.07</ele>
        <time>2019-12-20T08:09:57Z</time>
      </trkpt>
      <trkpt lat="43.27514" lon="2.49988">
        <ele>128.47</ele>
        <time>2019-12-20T08:10:07Z</time>
      </trkpt>
      <trkpt lat="43.27523" lon="2.49982">
        <ele>132.03</ele>
        <time>2019-12-20T08:10:17Z</time>
      </trkpt>
      <trkpt lat="43.27531" lon="2.49981">
        <ele>135.2</ele>
        <time>2019-12-20T08:10:27Z</time>
      </trkpt>
      <trkpt lat="43.27539" lon="2.49984">
        <ele>137.88</ele>
        <time>2019-12-20T08:10:37Z</time>
      </trkpt>
      <trkpt lat="43.27546" lon="2.49974">
        <ele>141.56</ele>
        <time>2019-12-20T08:10:47Z</time>
      </trkpt>
      <trkpt lat="43.27554" lon="2.49958">
        <ele>143.68</ele>
        <time>2019-12-20T08:10:57Z</time>
      </trkpt>
      <trkpt lat="43.2756" lon="2.49945">
        <ele>146.92</ele>
        <time>2019-12-20T08:11:07Z</time>
      </trkpt>
      <trkpt lat="43.27562" lon="2.49932">
        <ele>148.54</ele>
        <time>2019-12-20T08:11:17Z</time>
      </trkpt>
      <trkpt lat="43.27563" lon="2.49909">
        <ele>149.36</ele>
        <time>2019-12-20T08:11:27Z</time>
      </trkpt>
      <trkpt lat="43.27565" lon="2.49898">
        <ele>151.06</ele>
        <time>2019-12-20T08:11:37Z</time>
      </trkpt>
      <trkpt lat="43.27571" lon="2.49899">
        <ele>154.18</ele>
        <time>2019-12-20T08:11:47Z</time>
      </trkpt>
      <trkpt lat="43.27582" lon="2.49904">
        <ele>155.45</ele>
        <time>2019-12-20T08:11:57Z</time>
      </trkpt>
      <trkpt lat="43.27591" lon="2.4991">
        <ele>157.65</ele>
        <time>2019-12-20T08:12:07Z</time>
      </trkpt>
      <trkpt lat="43.27592" lon="2.49917">
        <ele>158.74</ele>
        <time>2019-12-20T08:12:17Z</time>
      </trkpt>
      <trkpt lat="43.27596" lon="2.49928">
        <ele>160.69</ele>
        <time>2019-12-20T08:12:27Z</time>
      </trkpt>
      <trkpt lat="43.27599" lon="2.49941">
        <ele>160.37</ele>
        <time>2019-12-20T08:12:37Z</time>
      </trkpt>
      <trkpt lat="43.27607" lon="2.49949">
        <ele>157.35</ele>
        <time>2019-12-20T08:12:47Z</time>
      </trkpt>
      <trkpt lat="43.27612" lon="2.49949">
        <ele>155.93</ele>
        <time>2019-12-20T08:12:57Z</time>
      </trkpt>
      <trkpt lat="43.27624" lon="2.49929">
        <ele>156.81</ele>
        <time>2019-12-20T08:13:07Z</time>
      </trkpt>
      <trkpt lat="43.27623" lon="2.49902">
        <ele>158.15</ele>
        <time>2019-12-20T08:13:17Z</time>
      </trkpt>
      <trkpt lat="43.27635" lon="2.4989">
        <ele>158.79</ele>
        <time>2019-12-20T08:13:27Z</time>
      </trkpt>
      <trkpt lat="43.27648" lon="2.49906">
        <ele>160.11</ele>
        <time>2019-12-20T08:13:37Z</time>
      </trkpt>
      <trkpt lat="43.27666" lon="2.49914">
        <ele>162.86</ele>
        <time>2019-12-20T08:13:47Z</time>
      </trkpt>
      <trkpt lat="43.2768" lon="2.49898">
        <ele>167.31</ele>
        <time>2019-12-20T08:13:57Z</time>
      </trkpt>
      <trkpt lat="43.27692" lon="2.49879">
        <ele>171.18</ele>
        <time>2019-12-20T08:14:07Z</time>
      </trkpt>
      <trkpt lat="43.27709" lon="2.49863">
        <ele>176.23</ele>
        <time>2019-12-20T08:14:17Z</time>
      </trkpt>
      <trkpt lat="43.27712" lon="2.49861">
        <ele>175.05</ele>
        <time>2019-12-20T08:14:27Z</time>
      </trkpt>
      <trkpt lat="43.27714" lon="2.49859">
        <ele>175.38</ele>
        <time>2019-12-20T08:14:37Z</time>
      </trkpt>
      <trkpt lat="43.27713" lon="2.49861">
        <ele>174.66</ele>
        <time>2019-12-20T08:14:47Z</time>
      </trkpt>
      <trkpt lat="43.27718" lon="2.49862">
        <ele>175.82</ele>
        <time>2019-12-20T08:14:57Z</time>
      </trkpt>
      <trkpt lat="43.27727" lon="2.49868">
        <ele>175.51</ele>
        <time>2019-12-20T08:15:07Z</time>
      </trkpt>
      <trkpt lat="43.27745" lon="2.49881">
        <ele>174.81</ele>
        <time>2019-12-20T08:15:17Z</time>
      </trkpt>
      <trkpt lat="43.27758" lon="2.49897">
        <ele>174.81</ele>
        <time>2019-12-20T08:15:27Z</time>
      </trkpt>
      <trkpt lat="43.27761" lon="2.49915">
        <ele>175.29</ele>
        <time>2019-12-20T08:15:37Z</time>
      </trkpt>
      <trkpt lat="43.27764" lon="2.49937">
        <ele>176.52</ele>
        <time>2019-12-20T08:15:45Z</time>
      </trkpt>
      <trkpt lat="43.27771" lon="2.49947">
        <ele>173.62</ele>
        <time>2019-12-20T08:15:56Z</time>
      </trkpt>
      <trkpt lat="43.27776" lon="2.49934">
        <ele>171.7</ele>
        <time>2019-12-20T08:16:06Z</time>
      </trkpt>
      <trkpt lat="43.27786" lon="2.49931">
        <ele>170.32</ele>
        <time>2019-12-20T08:16:16Z</time>
      </trkpt>
      <trkpt lat="43.27793" lon="2.49941">
        <ele>166.93</ele>
        <time>2019-12-20T08:16:26Z</time>
      </trkpt>
      <trkpt lat="43.27795" lon="2.49942">
        <ele>164.87</ele>
        <time>2019-12-20T08:16:36Z</time>
      </trkpt>
      <trkpt lat="43.27793" lon="2.49945">
        <ele>165.23</ele>
        <time>2019-12-20T08:16:46Z</time>
      </trkpt>
      <trkpt lat="43.27797" lon="2.49941">
        <ele>165.18</ele>
        <time>2019-12-20T08:16:56Z</time>
      </trkpt>
      <trkpt lat="43.27802" lon="2.49935">
        <ele>164.62</ele>
        <time>2019-12-20T08:17:06Z</time>
      </trkpt>
      <trkpt lat="43.27808" lon="2.49924">
        <ele>159.84</ele>
        <time>2019-12-20T08:17:16Z</time>
      </trkpt>
      <trkpt lat="43.2781" lon="2.49918">
        <ele>156.49</ele>
        <time>2019-12-20T08:17:26Z</time>
      </trkpt>
      <trkpt lat="43.27823" lon="2.49919">
        <ele>149.74</ele>
        <time>2019-12-20T08:17:36Z</time>
      </trkpt>
      <trkpt lat="43.27836" lon="2.49921">
        <ele>145.66</ele>
        <time>2019-12-20T08:17:46Z</time>
      </trkpt>
      <trkpt lat="43.27855" lon="2.49905">
        <ele>147.01</ele>
        <time>2019-12-20T08:17:56Z</time>
      </trkpt>
      <trkpt lat="43.27882" lon="2.49888">
        <ele>150.65</ele>
        <time>2019-12-20T08:18:06Z</time>
      </trkpt>
      <trkpt lat="43.27906" lon="2.49875">
        <ele>158.04</ele>
        <time>2019-12-20T08:18:16Z</time>
      </trkpt>
      <trkpt lat="43.27932" lon="2.49871">
        <ele>162.99</ele>
        <time>2019-12-20T08:18:26Z</time>
      </trkpt>
      <trkpt lat="43.2795" lon="2.49871">
        <ele>160.7</ele>
        <time>2019-12-20T08:18:36Z</time>
      </trkpt>
      <trkpt lat="43.27973" lon="2.49865">
        <ele>158.46</ele>
        <time>2019-12-20T08:18:46Z</time>
      </trkpt>
      <trkpt lat="43.27983" lon="2.49858">
        <ele>158.91</ele>
        <time>2019-12-20T08:18:56Z</time>
      </trkpt>
      <trkpt lat="43.27997" lon="2.49843">
        <ele>159.71</ele>
        <time>2019-12-20T08:19:06Z</time>
      </trkpt>
      <trkpt lat="43.28009" lon="2.49833">
        <ele>159.7</ele>
        <time>2019-12-20T08:19:16Z</time>
      </trkpt>
      <trkpt lat="43.28018" lon="2.49809">
        <ele>160.78</ele>
        <time>2019-12-20T08:19:26Z</time>
      </trkpt>
      <trkpt lat="43.28024" lon="2.4979">
        <ele>162.59</ele>
        <time>2019-12-20T08:19:36Z</time>
      </trkpt>
      <trkpt lat="43.28032" lon="2.49781">
        <ele>164.68</ele>
        <time>2019-12-20T08:19:46Z</time>
      </trkpt>
      <trkpt lat="43.28038" lon="2.49769">
        <ele>163.94</ele>
        <time>2019-12-20T08:19:56Z</time>
      </trkpt>
      <trkpt lat="43.28039" lon="2.49748">
        <ele>163.61</ele>
        <time>2019-12-20T08:20:06Z</time>
      </trkpt>
      <trkpt lat="43.2804" lon="2.49715">
        <ele>161.78</ele>
        <time>2019-12-20T08:20:16Z</time>
      </trkpt>
      <trkpt lat="43.2804" lon="2.49679">
        <ele>159.56</ele>
        <time>2019-12-20T08:20:26Z</time>
      </trkpt>
      <trkpt lat="43.28058" lon="2.49668">
        <ele>164.36</ele>
        <time>2019-12-20T08:20:36Z</time>
      </trkpt>
      <trkpt lat="43.28074" lon="2.49676">
        <ele>166.31</ele>
        <time>2019-12-20T08:20:46Z</time>
      </trkpt>
      <trkpt lat="43.28094" lon="2.49674">
        <ele>168.26</ele>
        <time>2019-12-20T08:20:56Z</time>
      </trkpt>
      <trkpt lat="43.28111" lon="2.49675">
        <ele>167.63</ele>
        <time>2019-12-20T08:21:06Z</time>
      </trkpt>
      <trkpt lat="43.28136" lon="2.49677">
        <ele>167.78</ele>
        <time>2019-12-20T08:21:16Z</time>
      </trkpt>
      <trkpt lat="43.28159" lon="2.49696">
        <ele>169.38</ele>
        <time>2019-12-20T08:21:26Z</time>
      </trkpt>
      <trkpt lat="43.28179" lon="2.49713">
        <ele>170.18</ele>
        <time>2019-12-20T08:21:36Z</time>
      </trkpt>
      <trkpt lat="43.28193" lon="2.4974">
        <ele>175.8</ele>
        <time>2019-12-20T08:21:46Z</time>
      </trkpt>
      <trkpt lat="43.28197" lon="2.49756">
        <ele>175.8</ele>
        <time>2019-12-20T08:21:56Z</time>
      </trkpt>
      <trkpt lat="43.28198" lon="2.49785">
        <ele>174.48</ele>
        <time>2019-12-20T08:22:06Z</time>
      </trkpt>
      <trkpt lat="43.28202" lon="2.49802">
        <ele>172.33</ele>
        <time>2019-12-20T08:22:16Z</time>
      </trkpt>
      <trkpt lat="43.28213" lon="2.49796">
        <ele>170.59</ele>
        <time>2019-12-20T08:22:26Z</time>
      </trkpt>
      <trkpt lat="43.28236" lon="2.49796">
        <ele>167.1</ele>
        <time>2019-12-20T08:22:36Z</time>
      </trkpt>
      <trkpt lat="43.28256" lon="2.49801">
        <ele>167.08</ele>
        <time>2019-12-20T08:22:46Z</time>
      </trkpt>
      <trkpt lat="43.28269" lon="2.4981">
        <ele>167.12</ele>
        <time>2019-12-20T08:22:56Z</time>
      </trkpt>
      <trkpt lat="43.28291" lon="2.49812">
        <ele>168.41</ele>
        <time>2019-12-20T08:23:06Z</time>
      </trkpt>
      <trkpt lat="43.28303" lon="2.49794">
        <ele>166.03</ele>
        <time>2019-12-20T08:23:16Z</time>
      </trkpt>
      <trkpt lat="43.28313" lon="2.49791">
        <ele>163.6</ele>
        <time>2019-12-20T08:23:26Z</time>
      </trkpt>
      <trkpt lat="43.28329" lon="2.49791">
        <ele>162.11</ele>
        <time>2019-12-20T08:23:36Z</time>
      </trkpt>
      <trkpt lat="43.28355" lon="2.49791">
        <ele>162.35</ele>
        <time>2019-12-20T08:23:46Z</time>
      </trkpt>
      <trkpt lat="43.28375" lon="2.49807">
        <ele>166.73</ele>
        <time>2019-12-20T08:23:56Z</time>
      </trkpt>
      <trkpt lat="43.28393" lon="2.49815">
        <ele>167.56</ele>
        <time>2019-12-20T08:24:06Z</time>
      </trkpt>
      <trkpt lat="43.2841" lon="2.49815">
        <ele>167.1</ele>
        <time>2019-12-20T08:24:16Z</time>
      </trkpt>
      <trkpt lat="43.28423" lon="2.49816">
        <ele>166.12</ele>
        <time>2019-12-20T08:24:21Z</time>
      </trkpt>
      <trkpt lat="43.28446" lon="2.49817">
        <ele>164.63</ele>
        <time>2019-12-20T08:24:32Z</time>
      </trkpt>
      <trkpt lat="43.28461" lon="2.49808">
        <ele>164.54</ele>
        <time>2019-12-20T08:24:42Z</time>
      </trkpt>
      <trkpt lat="43.28477" lon="2.49789">
        <ele>167.47</ele>
        <time>2019-12-20T08:24:52Z</time>
      </trkpt>
      <trkpt lat="43.28497" lon="2.49772">
        <ele>170.46</ele>
        <time>2019-12-20T08:25:02Z</time>
      </trkpt>
      <trkpt lat="43.28516" lon="2.49752">
        <ele>173.28</ele>
        <time>2019-12-20T08:25:12Z</time>
      </trkpt>
      <trkpt lat="43.28534" lon="2.49735">
        <ele>175.98</ele>
        <time>2019-12-20T08:25:22Z</time>
      </trkpt>
      <trkpt lat="43.28551" lon="2.49725">
        <ele>178.63</ele>
        <time>2019-12-20T08:25:32Z</time>
      </trkpt>
      <trkpt lat="43.28562" lon="2.49718">
        <ele>177.35</ele>
        <time>2019-12-20T08:25:42Z</time>
      </trkpt>
      <trkpt lat="43.28577" lon="2.49701">
        <ele>175.24</ele>
        <time>2019-12-20T08:25:52Z</time>
      </trkpt>
      <trkpt lat="43.2858" lon="2.4967">
        <ele>175.74</ele>
        <time>2019-12-20T08:26:02Z</time>
      </trkpt>
      <trkpt lat="43.28583" lon="2.49642">
        <ele>174.98</ele>
        <time>2019-12-20T08:26:12Z</time>
      </trkpt>
      <trkpt lat="43.28586" lon="2.4962">
        <ele>173.93</ele>
        <time>2019-12-20T08:26:22Z</time>
      </trkpt>
      <trkpt lat="43.28594" lon="2.49594">
        <ele>171.89</ele>
        <time>2019-12-20T08:26:32Z</time>
      </trkpt>
      <trkpt lat="43.28612" lon="2.49566">
        <ele>172.19</ele>
        <time>2019-12-20T08:26:42Z</time>
      </trkpt>
      <trkpt lat="43.28622" lon="2.49534">
        <ele>165.59</ele>
        <time>2019-12-20T08:26:52Z</time>
      </trkpt>
      <trkpt lat="43.28636" lon="2.49504">
        <ele>165.49</ele>
        <time>2019-12-20T08:27:02Z</time>
      </trkpt>
      <trkpt lat="43.28654" lon="2.49478">
        <ele>171.72</ele>
        <time>2019-12-20T08:27:12Z</time>
      </trkpt>
      <trkpt lat="43.28673" lon="2.49449">
        <ele>175.12</ele>
        <time>2019-12-20T08:27:22Z</time>
      </trkpt>
      <trkpt lat="43.28689" lon="2.49416">
        <ele>171.37</ele>
        <time>2019-12-20T08:27:32Z</time>
      </trkpt>
      <trkpt lat="43.28702" lon="2.49382">
        <ele>171.07</ele>
        <time>2019-12-20T08:27:42Z</time>
      </trkpt>
      <trkpt lat="43.2872" lon="2.49356">
        <ele>170.77</ele>
        <time>2019-12-20T08:27:52Z</time>
      </trkpt>
      <trkpt lat="43.28731" lon="2.49339">
        <ele>167.93</ele>
        <time>2019-12-20T08:28:02Z</time>
      </trkpt>
      <trkpt lat="43.2874" lon="2.49326">
        <ele>167.77</ele>
        <time>2019-12-20T08:28:12Z</time>
      </trkpt>
      <trkpt lat="43.28756" lon="2.49308">
        <ele>169.76</ele>
        <time>2019-12-20T08:28:22Z</time>
      </trkpt>
      <trkpt lat="43.28777" lon="2.4929">
        <ele>170.59</ele>
        <time>2019-12-20T08:28:32Z</time>
      </trkpt>
      <trkpt lat="43.28802" lon="2.49281">
        <ele>174.56</ele>
        <time>2019-12-20T08:28:42Z</time>
      </trkpt>
      <trkpt lat="43.28817" lon="2.49283">
        <ele>177.58</ele>
        <time>2019-12-20T08:28:52Z</time>
      </trkpt>
      <trkpt lat="43.2883" lon="2.4929">
        <ele>178.18</ele>
        <time>2019-12-20T08:29:02Z</time>
      </trkpt>
      <trkpt lat="43.28851" lon="2.493">
        <ele>177.76</ele>
        <time>2019-12-20T08:29:12Z</time>
      </trkpt>
      <trkpt lat="43.28855" lon="2.49316">
        <ele>179.26</ele>
        <time>2019-12-20T08:29:22Z</time>
      </trkpt>
      <trkpt lat="43.28853" lon="2.49344">
        <ele>180.49</ele>
        <time>2019-12-20T08:29:32Z</time>
      </trkpt>
      <trkpt lat="43.28859" lon="2.49369">
        <ele>180.45</ele>
        <time>2019-12-20T08:29:42Z</time>
      </trkpt>
      <trkpt lat="43.28859" lon="2.49375">
        <ele>179.12</ele>
        <time>2019-12-20T08:29:52Z</time>
      </trkpt>
      <trkpt lat="43.28861" lon="2.49381">
        <ele>178.36</ele>
        <time>2019-12-20T08:30:02Z</time>
      </trkpt>
      <trkpt lat="43.28862" lon="2.49411">
        <ele>178.88</ele>
        <time>2019-12-20T08:30:12Z</time>
      </trkpt>
      <trkpt lat="43.28859" lon="2.49446">
        <ele>178.93</ele>
        <time>2019-12-20T08:30:22Z</time>
      </trkpt>
      <trkpt lat="43.28857" lon="2.49484">
        <ele>176.51</ele>
        <time>2019-12-20T08:30:32Z</time>
      </trkpt>
      <trkpt lat="43.28851" lon="2.49523">
        <ele>173.62</ele>
        <time>2019-12-20T08:30:42Z</time>
      </trkpt>
      <trkpt lat="43.28845" lon="2.4956">
        <ele>171.34</ele>
        <time>2019-12-20T08:30:52Z</time>
      </trkpt>
      <trkpt lat="43.28839" lon="2.49591">
        <ele>165.14</ele>
        <time>2019-12-20T08:31:02Z</time>
      </trkpt>
      <trkpt lat="43.28831" lon="2.49627">
        <ele>158.41</ele>
        <time>2019-12-20T08:31:12Z</time>
      </trkpt>
      <trkpt lat="43.28828" lon="2.49645">
        <ele>156.15</ele>
        <time>2019-12-20T08:31:17Z</time>
      </trkpt>
      <trkpt lat="43.28822" lon="2.49679">
        <ele>150.14</ele>
        <time>2019-12-20T08:31:28Z</time>
      </trkpt>
      <trkpt lat="43.28821" lon="2.49701">
        <ele>148.17</ele>
        <time>2019-12-20T08:31:38Z</time>
      </trkpt>
      <trkpt lat="43.28819" lon="2.49709">
        <ele>148.82</ele>
        <time>2019-12-20T08:31:48Z</time>
      </trkpt>
      <trkpt lat="43.28823" lon="2.49715">
        <ele>150.15</ele>
        <time>2019-12-20T08:31:58Z</time>
      </trkpt>
      <trkpt lat="43.28837" lon="2.49716">
        <ele>152.09</ele>
        <time>2019-12-20T08:32:08Z</time>
      </trkpt>
      <trkpt lat="43.28847" lon="2.49716">
        <ele>152.16</ele>
        <time>2019-12-20T08:32:18Z</time>
      </trkpt>
      <trkpt lat="43.28857" lon="2.49713">
        <ele>149.95</ele>
        <time>2019-12-20T08:32:28Z</time>
      </trkpt>
      <trkpt lat="43.28879" lon="2.49705">
        <ele>150.98</ele>
        <time>2019-12-20T08:32:38Z</time>
      </trkpt>
      <trkpt lat="43.28896" lon="2.49718">
        <ele>149.27</ele>
        <time>2019-12-20T08:32:48Z</time>
      </trkpt>
      <trkpt lat="43.28912" lon="2.4972">
        <ele>148.19</ele>
        <time>2019-12-20T08:32:58Z</time>
      </trkpt>
      <trkpt lat="43.28934" lon="2.49726">
        <ele>150.73</ele>
        <time>2019-12-20T08:33:08Z</time>
      </trkpt>
      <trkpt lat="43.28949" lon="2.49729">
        <ele>151.93</ele>
        <time>2019-12-20T08:33:18Z</time>
      </trkpt>
      <trkpt lat="43.28963" lon="2.49726">
        <ele>157.93</ele>
        <time>2019-12-20T08:33:28Z</time>
      </trkpt>
      <trkpt lat="43.2898" lon="2.4972">
        <ele>160.48</ele>
        <time>2019-12-20T08:33:38Z</time>
      </trkpt>
      <trkpt lat="43.29005" lon="2.49717">
        <ele>162.64</ele>
        <time>2019-12-20T08:33:48Z</time>
      </trkpt>
      <trkpt lat="43.29029" lon="2.49712">
        <ele>163.73</ele>
        <time>2019-12-20T08:33:58Z</time>
      </trkpt>
      <trkpt lat="43.29051" lon="2.49704">
        <ele>167.48</ele>
        <time>2019-12-20T08:34:08Z</time>
      </trkpt>
      <trkpt lat="43.29067" lon="2.497">
        <ele>168.97</ele>
        <time>2019-12-20T08:34:18Z</time>
      </trkpt>
      <trkpt lat="43.29081" lon="2.497">
        <ele>167.06</ele>
        <time>2019-12-20T08:34:28Z</time>
      </trkpt>
      <trkpt lat="43.2909" lon="2.49699">
        <ele>166.46</ele>
        <time>2019-12-20T08:34:38Z</time>
      </trkpt>
      <trkpt lat="43.29104" lon="2.49698">
        <ele>166.46</ele>
        <time>2019-12-20T08:34:48Z</time>
      </trkpt>
      <trkpt lat="43.2912" lon="2.49695">
        <ele>167.56</ele>
        <time>2019-12-20T08:34:58Z</time>
      </trkpt>
      <trkpt lat="43.29144" lon="2.49697">
        <ele>170.77</ele>
        <time>2019-12-20T08:35:08Z</time>
      </trkpt>
      <trkpt lat="43.2917" lon="2.497">
        <ele>174.26</ele>
        <time>2019-12-20T08:35:18Z</time>
      </trkpt>
      <trkpt lat="43.29199" lon="2.497">
        <ele>177.59</ele>
        <time>2019-12-20T08:35:28Z</time>
      </trkpt>
      <trkpt lat="43.29228" lon="2.49704">
        <ele>180.3</ele>
        <time>2019-12-20T08:35:38Z</time>
      </trkpt>
      <trkpt lat="43.29252" lon="2.49719">
        <ele>181.98</ele>
        <time>2019-12-20T08:35:48Z</time>
      </trkpt>
      <trkpt lat="43.29267" lon="2.49738">
        <ele>183.12</ele>
        <time>2019-12-20T08:35:58Z</time>
      </trkpt>
      <trkpt lat="43.29284" lon="2.49762">
        <ele>181.95</ele>
        <time>2019-12-20T08:36:08Z</time>
      </trkpt>
      <trkpt lat="43.29296" lon="2.4979">
        <ele>184.28</ele>
        <time>2019-12-20T08:36:18Z</time>
      </trkpt>
      <trkpt lat="43.29305" lon="2.49824">
        <ele>187.36</ele>
        <time>2019-12-20T08:36:28Z</time>
      </trkpt>
      <trkpt lat="43.29314" lon="2.49858">
        <ele>189.54</ele>
        <time>2019-12-20T08:36:38Z</time>
      </trkpt>
      <trkpt lat="43.29325" lon="2.49888">
        <ele>191.33</ele>
        <time>2019-12-20T08:36:48Z</time>
      </trkpt>
      <trkpt lat="43.29338" lon="2.49915">
        <ele>189.7</ele>
        <time>2019-12-20T08:36:58Z</time>
      </trkpt>
      <trkpt lat="43.29338" lon="2.49945">
        <ele>188.27</ele>
        <time>2019-12-20T08:37:08Z</time>
      </trkpt>
      <trkpt lat="43.29342" lon="2.49968">
        <ele>186.88</ele>
        <time>2019-12-20T08:37:18Z</time>
      </trkpt>
      <trkpt lat="43.29363" lon="2.49964">
        <ele>185.1</ele>
        <time>2019-12-20T08:37:28Z</time>
      </trkpt>
      <trkpt lat="43.29385" lon="2.49956">
        <ele>188.09</ele>
        <time>2019-12-20T08:37:38Z</time>
      </trkpt>
      <trkpt lat="43.29407" lon="2.49941">
        <ele>190.06</ele>
        <time>2019-12-20T08:37:48Z</time>
      </trkpt>
      <trkpt lat="43.29427" lon="2.4992">
        <ele>189.42</ele>
        <time>2019-12-20T08:37:58Z</time>
      </trkpt>
      <trkpt lat="43.29447" lon="2.49899">
        <ele>189.87</ele>
        <time>2019-12-20T08:38:08Z</time>
      </trkpt>
      <trkpt lat="43.29462" lon="2.49875">
        <ele>190.2</ele>
        <time>2019-12-20T08:38:18Z</time>
      </trkpt>
      <trkpt lat="43.29457" lon="2.49848">
        <ele>190.73</ele>
        <time>2019-12-20T08:38:28Z</time>
      </trkpt>
      <trkpt lat="43.29454" lon="2.49821">
        <ele>189.41</ele>
        <time>2019-12-20T08:38:38Z</time>
      </trkpt>
      <trkpt lat="43.29455" lon="2.49816">
        <ele>189.46</ele>
        <time>2019-12-20T08:38:40Z</time>
      </trkpt>
      <trkpt lat="43.29471" lon="2.49791">
        <ele>192.15</ele>
        <time>2019-12-20T08:38:51Z</time>
      </trkpt>
      <trkpt lat="43.29484" lon="2.49768">
        <ele>193.75</ele>
        <time>2019-12-20T08:39:01Z</time>
      </trkpt>
      <trkpt lat="43.29495" lon="2.49743">
        <ele>194.04</ele>
        <time>2019-12-20T08:39:11Z</time>
      </trkpt>
      <trkpt lat="43.29512" lon="2.4973">
        <ele>192.68</ele>
        <time>2019-12-20T08:39:21Z</time>
      </trkpt>
      <trkpt lat="43.29532" lon="2.4972">
        <ele>192.37</ele>
        <time>2019-12-20T08:39:31Z</time>
      </trkpt>
      <trkpt lat="43.29552" lon="2.49709">
        <ele>194.96</ele>
        <time>2019-12-20T08:39:41Z</time>
      </trkpt>
      <trkpt lat="43.29559" lon="2.49694">
        <ele>196.42</ele>
        <time>2019-12-20T08:39:51Z</time>
      </trkpt>
      <trkpt lat="43.29569" lon="2.49666">
        <ele>197.99</ele>
        <time>2019-12-20T08:40:01Z</time>
      </trkpt>
      <trkpt lat="43.29582" lon="2.49636">
        <ele>200.42</ele>
        <time>2019-12-20T08:40:11Z</time>
      </trkpt>
      <trkpt lat="43.29594" lon="2.49607">
        <ele>202.34</ele>
        <time>2019-12-20T08:40:21Z</time>
      </trkpt>
      <trkpt lat="43.29605" lon="2.49582">
        <ele>203.27</ele>
        <time>2019-12-20T08:40:31Z</time>
      </trkpt>
      <trkpt lat="43.29616" lon="2.49554">
        <ele>202.49</ele>
        <time>2019-12-20T08:40:41Z</time>
      </trkpt>
      <trkpt lat="43.29627" lon="2.49525">
        <ele>204.04</ele>
        <time>2019-12-20T08:40:51Z</time>
      </trkpt>
      <trkpt lat="43.29644" lon="2.49512">
        <ele>206.52</ele>
        <time>2019-12-20T08:41:01Z</time>
      </trkpt>
      <trkpt lat="43.29663" lon="2.49523">
        <ele>207.13</ele>
        <time>2019-12-20T08:41:11Z</time>
      </trkpt>
      <trkpt lat="43.29679" lon="2.49521">
        <ele>209.13</ele>
        <time>2019-12-20T08:41:21Z</time>
      </trkpt>
      <trkpt lat="43.29686" lon="2.49518">
        <ele>209.99</ele>
        <time>2019-12-20T08:41:31Z</time>
      </trkpt>
      <trkpt lat="43.29688" lon="2.49518">
        <ele>211.94</ele>
        <time>2019-12-20T08:41:41Z</time>
      </trkpt>
      <trkpt lat="43.29689" lon="2.49513">
        <ele>212.08</ele>
        <time>2019-12-20T08:41:51Z</time>
      </trkpt>
      <trkpt lat="43.29693" lon="2.49496">
        <ele>212.15</ele>
        <time>2019-12-20T08:42:01Z</time>
      </trkpt>
      <trkpt lat="43.29701" lon="2.49469">
        <ele>212.39</ele>
        <time>2019-12-20T08:42:11Z</time>
      </trkpt>
      <trkpt lat="43.29691" lon="2.49441">
        <ele>212.51</ele>
        <time>2019-12-20T08:42:21Z</time>
      </trkpt>
      <trkpt lat="43.29678" lon="2.49414">
        <ele>213.16</ele>
        <time>2019-12-20T08:42:31Z</time>
      </trkpt>
      <trkpt lat="43.29668" lon="2.49383">
        <ele>210.22</ele>
        <time>2019-12-20T08:42:41Z</time>
      </trkpt>
      <trkpt lat="43.29658" lon="2.4935">
        <ele>207.99</ele>
        <time>2019-12-20T08:42:51Z</time>
      </trkpt>
      <trkpt lat="43.29652" lon="2.49315">
        <ele>205.89</ele>
        <time>2019-12-20T08:43:01Z</time>
      </trkpt>
      <trkpt lat="43.29642" lon="2.49285">
        <ele>205.79</ele>
        <time>2019-12-20T08:43:11Z</time>
      </trkpt>
      <trkpt lat="43.29629" lon="2.49254">
        <ele>205.15</ele>
        <time>2019-12-20T08:43:21Z</time>
      </trkpt>
      <trkpt lat="43.29607" lon="2.49238">
        <ele>204.23</ele>
        <time>2019-12-20T08:43:31Z</time>
      </trkpt>
      <trkpt lat="43.29593" lon="2.49212">
        <ele>201.3</ele>
        <time>2019-12-20T08:43:41Z</time>
      </trkpt>
      <trkpt lat="43.29597" lon="2.4918">
        <ele>202.37</ele>
        <time>2019-12-20T08:43:51Z</time>
      </trkpt>
      <trkpt lat="43.29605" lon="2.49151">
        <ele>203.87</ele>
        <time>2019-12-20T08:44:01Z</time>
      </trkpt>
      <trkpt lat="43.29609" lon="2.49123">
        <ele>206.85</ele>
        <time>2019-12-20T08:44:11Z</time>
      </trkpt>
      <trkpt lat="43.29611" lon="2.49104">
        <ele>207.66</ele>
        <time>2019-12-20T08:44:21Z</time>
      </trkpt>
      <trkpt lat="43.29598" lon="2.49098">
        <ele>207.05</ele>
        <time>2019-12-20T08:44:31Z</time>
      </trkpt>
      <trkpt lat="43.29587" lon="2.49108">
        <ele>206.5</ele>
        <time>2019-12-20T08:44:41Z</time>
      </trkpt>
      <trkpt lat="43.2957" lon="2.49132">
        <ele>206.94</ele>
        <time>2019-12-20T08:44:51Z</time>
      </trkpt>
      <trkpt lat="43.29551" lon="2.49159">
        <ele>204.13</ele>
        <time>2019-12-20T08:45:01Z</time>
      </trkpt>
      <trkpt lat="43.29532" lon="2.49184">
        <ele>202.97</ele>
        <time>2019-12-20T08:45:11Z</time>
      </trkpt>
      <trkpt lat="43.29525" lon="2.4919">
        <ele>203.51</ele>
        <time>2019-12-20T08:45:21Z</time>
      </trkpt>
      <trkpt lat="43.29525" lon="2.4919">
        <ele>203.61</ele>
        <time>2019-12-20T08:45:31Z</time>
      </trkpt>
      <trkpt lat="43.29524" lon="2.4919">
        <ele>203.98</ele>
        <time>2019-12-20T08:45:41Z</time>
      </trkpt>
      <trkpt lat="43.29523" lon="2.49191">
        <ele>203.73</ele>
        <time>2019-12-20T08:45:51Z</time>
      </trkpt>
      <trkpt lat="43.2952" lon="2.4919">
        <ele>203.8</ele>
        <time>2019-12-20T08:46:01Z</time>
      </trkpt>
      <trkpt lat="43.29507" lon="2.49186">
        <ele>203.5</ele>
        <time>2019-12-20T08:46:11Z</time>
      </trkpt>
      <trkpt lat="43.29485" lon="2.4918">
        <ele>203.58</ele>
        <time>2019-12-20T08:46:21Z</time>
      </trkpt>
      <trkpt lat="43.29461" lon="2.49175">
        <ele>200.15</ele>
        <time>2019-12-20T08:46:31Z</time>
      </trkpt>
      <trkpt lat="43.29447" lon="2.49174">
        <ele>200.02</ele>
        <time>2019-12-20T08:46:36Z</time>
      </trkpt>
      <trkpt lat="43.29417" lon="2.4917">
        <ele>196.98</ele>
        <time>2019-12-20T08:46:47Z</time>
      </trkpt>
      <trkpt lat="43.29389" lon="2.49166">
        <ele>195.82</ele>
        <time>2019-12-20T08:46:57Z</time>
      </trkpt>
      <trkpt lat="43.2936" lon="2.4916">
        <ele>191.94</ele>
        <time>2019-12-20T08:47:07Z</time>
      </trkpt>
      <trkpt lat="43.29332" lon="2.49156">
        <ele>191.57</ele>
        <time>2019-12-20T08:47:17Z</time>
      </trkpt>
      <trkpt lat="43.29302" lon="2.49152">
        <ele>190.13</ele>
        <time>2019-12-20T08:47:27Z</time>
      </trkpt>
      <trkpt lat="43.29274" lon="2.49144">
        <ele>185.96</ele>
        <time>2019-12-20T08:47:37Z</time>
      </trkpt>
      <trkpt lat="43.29248" lon="2.49139">
        <ele>186.7</ele>
        <time>2019-12-20T08:47:47Z</time>
      </trkpt>
      <trkpt lat="43.29251" lon="2.49138">
        <ele>187.02</ele>
        <time>2019-12-20T08:47:57Z</time>
      </trkpt>
      <trkpt lat="43.29258" lon="2.49126">
        <ele>187.88</ele>
        <time>2019-12-20T08:48:07Z</time>
      </trkpt>
      <trkpt lat="43.29248" lon="2.49095">
        <ele>187.46</ele>
        <time>2019-12-20T08:48:17Z</time>
      </trkpt>
      <trkpt lat="43.29234" lon="2.49065">
        <ele>187.77</ele>
        <time>2019-12-20T08:48:27Z</time>
      </trkpt>
      <trkpt lat="43.29224" lon="2.49039">
        <ele>189.17</ele>
        <time>2019-12-20T08:48:37Z</time>
      </trkpt>
      <trkpt lat="43.29222" lon="2.4901">
        <ele>189.94</ele>
        <time>2019-12-20T08:48:47Z</time>
      </trkpt>
      <trkpt lat="43.29222" lon="2.48973">
        <ele>189.34</ele>
        <time>2019-12-20T08:48:57Z</time>
      </trkpt>
      <trkpt lat="43.29232" lon="2.48941">
        <ele>189.94</ele>
        <time>2019-12-20T08:49:07Z</time>
      </trkpt>
      <trkpt lat="43.29245" lon="2.48911">
        <ele>193.13</ele>
        <time>2019-12-20T08:49:17Z</time>
      </trkpt>
      <trkpt lat="43.29257" lon="2.48884">
        <ele>191.83</ele>
        <time>2019-12-20T08:49:27Z</time>
      </trkpt>
      <trkpt lat="43.2927" lon="2.48855">
        <ele>192.63</ele>
        <time>2019-12-20T08:49:37Z</time>
      </trkpt>
      <trkpt lat="43.2928" lon="2.48825">
        <ele>193.17</ele>
        <time>2019-12-20T08:49:47Z</time>
      </trkpt>
      <trkpt lat="43.29262" lon="2.48824">
        <ele>195.65</ele>
        <time>2019-12-20T08:49:57Z</time>
      </trkpt>
      <trkpt lat="43.29251" lon="2.4883">
        <ele>198.55</ele>
        <time>2019-12-20T08:50:07Z</time>
      </trkpt>
      <trkpt lat="43.29237" lon="2.48839">
        <ele>198.19</ele>
        <time>2019-12-20T08:50:17Z</time>
      </trkpt>
      <trkpt lat="43.29209" lon="2.48853">
        <ele>196.14</ele>
        <time>2019-12-20T08:50:27Z</time>
      </trkpt>
      <trkpt lat="43.29185" lon="2.48857">
        <ele>196.35</ele>
        <time>2019-12-20T08:50:37Z</time>
      </trkpt>
      <trkpt lat="43.29165" lon="2.48838">
        <ele>192.36</ele>
        <time>2019-12-20T08:50:47Z</time>
      </trkpt>
      <trkpt lat="43.29148" lon="2.4886">
        <ele>190.19</ele>
        <time>2019-12-20T08:50:57Z</time>
      </trkpt>
      <trkpt lat="43.29128" lon="2.48878">
        <ele>193.77</ele>
        <time>2019-12-20T08:51:07Z</time>
      </trkpt>
      <trkpt lat="43.29106" lon="2.4886">
        <ele>192.76</ele>
        <time>2019-12-20T08:51:17Z</time>
      </trkpt>
      <trkpt lat="43.29087" lon="2.48845">
        <ele>193.36</ele>
        <time>2019-12-20T08:51:27Z</time>
      </trkpt>
      <trkpt lat="43.29079" lon="2.4885">
        <ele>192.03</ele>
        <time>2019-12-20T08:51:37Z</time>
      </trkpt>
      <trkpt lat="43.29071" lon="2.48856">
        <ele>189.89</ele>
        <time>2019-12-20T08:51:47Z</time>
      </trkpt>
      <trkpt lat="43.29069" lon="2.48857">
        <ele>189.8</ele>
        <time>2019-12-20T08:51:57Z</time>
      </trkpt>
      <trkpt lat="43.29063" lon="2.48863">
        <ele>188.66</ele>
        <time>2019-12-20T08:52:07Z</time>
      </trkpt>
      <trkpt lat="43.29062" lon="2.48863">
        <ele>186.66</ele>
        <time>2019-12-20T08:52:17Z</time>
      </trkpt>
      <trkpt lat="43.29055" lon="2.48874">
        <ele>184.26</ele>
        <time>2019-12-20T08:52:27Z</time>
      </trkpt>
      <trkpt lat="43.29045" lon="2.48884">
        <ele>180.25</ele>
        <time>2019-12-20T08:52:37Z</time>
      </trkpt>
      <trkpt lat="43.2903" lon="2.48892">
        <ele>177.87</ele>
        <time>2019-12-20T08:52:47Z</time>
      </trkpt>
      <trkpt lat="43.29025" lon="2.48899">
        <ele>175.72</ele>
        <time>2019-12-20T08:52:57Z</time>
      </trkpt>
      <trkpt lat="43.29018" lon="2.48911">
        <ele>175.07</ele>
        <time>2019-12-20T08:53:07Z</time>
      </trkpt>
      <trkpt lat="43.29008" lon="2.48921">
        <ele>174.74</ele>
        <time>2019-12-20T08:53:17Z</time>
      </trkpt>
      <trkpt lat="43.28993" lon="2.48918">
        <ele>176.54</ele>
        <time>2019-12-20T08:53:27Z</time>
      </trkpt>
      <trkpt lat="43.28972" lon="2.48906">
        <ele>178.58</ele>
        <time>2019-12-20T08:53:37Z</time>
      </trkpt>
      <trkpt lat="43.28949" lon="2.48893">
        <ele>179.71</ele>
        <time>2019-12-20T08:53:47Z</time>
      </trkpt>
      <trkpt lat="43.28929" lon="2.48883">
        <ele>179.75</ele>
        <time>2019-12-20T08:53:57Z</time>
      </trkpt>
      <trkpt lat="43.28917" lon="2.48879">
        <ele>176.07</ele>
        <time>2019-12-20T08:54:07Z</time>
      </trkpt>
      <trkpt lat="43.28913" lon="2.48875">
        <ele>175.44</ele>
        <time>2019-12-20T08:54:11Z</time>
      </trkpt>
      <trkpt lat="43.289" lon="2.48847">
        <ele>173.79</ele>
        <time>2019-12-20T08:54:22Z</time>
      </trkpt>
      <trkpt lat="43.28888" lon="2.48816">
        <ele>169.84</ele>
        <time>2019-12-20T08:54:32Z</time>
      </trkpt>
      <trkpt lat="43.28878" lon="2.48783">
        <ele>169.17</ele>
        <time>2019-12-20T08:54:42Z</time>
      </trkpt>
      <trkpt lat="43.28866" lon="2.48751">
        <ele>169.11</ele>
        <time>2019-12-20T08:54:52Z</time>
      </trkpt>
      <trkpt lat="43.28853" lon="2.48724">
        <ele>166.99</ele>
        <time>2019-12-20T08:55:02Z</time>
      </trkpt>
      <trkpt lat="43.28842" lon="2.487">
        <ele>166.51</ele>
        <time>2019-12-20T08:55:12Z</time>
      </trkpt>
      <trkpt lat="43.28827" lon="2.48678">
        <ele>166.87</ele>
        <time>2019-12-20T08:55:22Z</time>
      </trkpt>
      <trkpt lat="43.28813" lon="2.48658">
        <ele>166.77</ele>
        <time>2019-12-20T08:55:32Z</time>
      </trkpt>
      <trkpt lat="43.28801" lon="2.48635">
        <ele>165.14</ele>
        <time>2019-12-20T08:55:42Z</time>
      </trkpt>
      <trkpt lat="43.28794" lon="2.48604">
        <ele>164.42</ele>
        <time>2019-12-20T08:55:52Z</time>
      </trkpt>
      <trkpt lat="43.28786" lon="2.48575">
        <ele>161.33</ele>
        <time>2019-12-20T08:56:02Z</time>
      </trkpt>
      <trkpt lat="43.28784" lon="2.48539">
        <ele>160.73</ele>
        <time>2019-12-20T08:56:12Z</time>
      </trkpt>
      <trkpt lat="43.28778" lon="2.48506">
        <ele>161.99</ele>
        <time>2019-12-20T08:56:22Z</time>
      </trkpt>
      <trkpt lat="43.28781" lon="2.4847">
        <ele>161.39</ele>
        <time>2019-12-20T08:56:32Z</time>
      </trkpt>
      <trkpt lat="43.28783" lon="2.4844">
        <ele>162.36</ele>
        <time>2019-12-20T08:56:42Z</time>
      </trkpt>
      <trkpt lat="43.28777" lon="2.48436">
        <ele>162.58</ele>
        <time>2019-12-20T08:56:52Z</time>
      </trkpt>
      <trkpt lat="43.28765" lon="2.48458">
        <ele>162.76</ele>
        <time>2019-12-20T08:57:02Z</time>
      </trkpt>
      <trkpt lat="43.28749" lon="2.48482">
        <ele>164.25</ele>
        <time>2019-12-20T08:57:12Z</time>
      </trkpt>
      <trkpt lat="43.28734" lon="2.48508">
        <ele>164.83</ele>
        <time>2019-12-20T08:57:22Z</time>
      </trkpt>
      <trkpt lat="43.28715" lon="2.4853">
        <ele>165.22</ele>
        <time>2019-12-20T08:57:32Z</time>
      </trkpt>
      <trkpt lat="43.28701" lon="2.48549">
        <ele>165.28</ele>
        <time>2019-12-20T08:57:42Z</time>
      </trkpt>
      <trkpt lat="43.28693" lon="2.48571">
        <ele>168.12</ele>
        <time>2019-12-20T08:57:52Z</time>
      </trkpt>
      <trkpt lat="43.28684" lon="2.48577">
        <ele>171.01</ele>
        <time>2019-12-20T08:58:02Z</time>
      </trkpt>
      <trkpt lat="43.28687" lon="2.48578">
        <ele>170.94</ele>
        <time>2019-12-20T08:58:12Z</time>
      </trkpt>
      <trkpt lat="43.2869" lon="2.48576">
        <ele>170.48</ele>
        <time>2019-12-20T08:58:22Z</time>
      </trkpt>
      <trkpt lat="43.28687" lon="2.48577">
        <ele>170.04</ele>
        <time>2019-12-20T08:58:32Z</time>
      </trkpt>
      <trkpt lat="43.2868" lon="2.48574">
        <ele>169.66</ele>
        <time>2019-12-20T08:58:42Z</time>
      </trkpt>
      <trkpt lat="43.28673" lon="2.48568">
        <ele>169.94</ele>
        <time>2019-12-20T08:58:52Z</time>
      </trkpt>
      <trkpt lat="43.28665" lon="2.48558">
        <ele>169.65</ele>
        <time>2019-12-20T08:59:02Z</time>
      </trkpt>
      <trkpt lat="43.28656" lon="2.48545">
        <ele>169.69</ele>
        <time>2019-12-20T08:59:12Z</time>
      </trkpt>
      <trkpt lat="43.28648" lon="2.48531">
        <ele>169.43</ele>
        <time>2019-12-20T08:59:22Z</time>
      </trkpt>
      <trkpt lat="43.28638" lon="2.48509">
        <ele>169.6</ele>
        <time>2019-12-20T08:59:32Z</time>
      </trkpt>
      <trkpt lat="43.28625" lon="2.48482">
        <ele>169.31</ele>
        <time>2019-12-20T08:59:42Z</time>
      </trkpt>
      <trkpt lat="43.28612" lon="2.4845">
        <ele>170.08</ele>
        <time>2019-12-20T08:59:52Z</time>
      </trkpt>
      <trkpt lat="43.28599" lon="2.48418">
        <ele>169.94</ele>
        <time>2019-12-20T09:00:02Z</time>
      </trkpt>
      <trkpt lat="43.28584" lon="2.48386">
        <ele>166.69</ele>
        <time>2019-12-20T09:00:12Z</time>
      </trkpt>
      <trkpt lat="43.2857" lon="2.48352">
        <ele>167.73</ele>
        <time>2019-12-20T09:00:22Z</time>
      </trkpt>
      <trkpt lat="43.28557" lon="2.4832">
        <ele>168.07</ele>
        <time>2019-12-20T09:00:32Z</time>
      </trkpt>
      <trkpt lat="43.28541" lon="2.48291">
        <ele>165.47</ele>
        <time>2019-12-20T09:00:42Z</time>
      </trkpt>
      <trkpt lat="43.28528" lon="2.48267">
        <ele>161.95</ele>
        <time>2019-12-20T09:00:52Z</time>
      </trkpt>
      <trkpt lat="43.28519" lon="2.48247">
        <ele>157.38</ele>
        <time>2019-12-20T09:01:02Z</time>
      </trkpt>
      <trkpt lat="43.28514" lon="2.48228">
        <ele>153.94</ele>
        <time>2019-12-20T09:01:12Z</time>
      </trkpt>
      <trkpt lat="43.28514" lon="2.48208">
        <ele>150.21</ele>
        <time>2019-12-20T09:01:22Z</time>
      </trkpt>
      <trkpt lat="43.28511" lon="2.48179">
        <ele>149.61</ele>
        <time>2019-12-20T09:01:32Z</time>
      </trkpt>
      <trkpt lat="43.28508" lon="2.48153">
        <ele>147.26</ele>
        <time>2019-12-20T09:01:42Z</time>
      </trkpt>
      <trkpt lat="43.28504" lon="2.48145">
        <ele>146.26</ele>
        <time>2019-12-20T09:01:45Z</time>
      </trkpt>
      <trkpt lat="43.28493" lon="2.48118">
        <ele>144.42</ele>
        <time>2019-12-20T09:01:55Z</time>
      </trkpt>
      <trkpt lat="43.28475" lon="2.48093">
        <ele>146.5</ele>
        <time>2019-12-20T09:02:05Z</time>
      </trkpt>
      <trkpt lat="43.28452" lon="2.48081">
        <ele>147.78</ele>
        <time>2019-12-20T09:02:15Z</time>
      </trkpt>
      <trkpt lat="43.28432" lon="2.48075">
        <ele>148.84</ele>
        <time>2019-12-20T09:02:25Z</time>
      </trkpt>
      <trkpt lat="43.28424" lon="2.48074">
        <ele>148.21</ele>
        <time>2019-12-20T09:02:35Z</time>
      </trkpt>
      <trkpt lat="43.28421" lon="2.48077">
        <ele>148.39</ele>
        <time>2019-12-20T09:02:45Z</time>
      </trkpt>
      <trkpt lat="43.28413" lon="2.48071">
        <ele>150.5</ele>
        <time>2019-12-20T09:02:55Z</time>
      </trkpt>
      <trkpt lat="43.28401" lon="2.48052">
        <ele>154.14</ele>
        <time>2019-12-20T09:03:05Z</time>
      </trkpt>
      <trkpt lat="43.28392" lon="2.48038">
        <ele>156.73</ele>
        <time>2019-12-20T09:03:15Z</time>
      </trkpt>
      <trkpt lat="43.28383" lon="2.48036">
        <ele>160.26</ele>
        <time>2019-12-20T09:03:25Z</time>
      </trkpt>
      <trkpt lat="43.28379" lon="2.48028">
        <ele>161.68</ele>
        <time>2019-12-20T09:03:35Z</time>
      </trkpt>
      <trkpt lat="43.28377" lon="2.48002">
        <ele>161.16</ele>
        <time>2019-12-20T09:03:45Z</time>
      </trkpt>
      <trkpt lat="43.28367" lon="2.47972">
        <ele>161.85</ele>
        <time>2019-12-20T09:03:55Z</time>
      </trkpt>
      <trkpt lat="43.28357" lon="2.4794">
        <ele>159.41</ele>
        <time>2019-12-20T09:04:05Z</time>
      </trkpt>
      <trkpt lat="43.28346" lon="2.47906">
        <ele>159.28</ele>
        <time>2019-12-20T09:04:15Z</time>
      </trkpt>
      <trkpt lat="43.28334" lon="2.47873">
        <ele>161.02</ele>
        <time>2019-12-20T09:04:25Z</time>
      </trkpt>
      <trkpt lat="43.28322" lon="2.47837">
        <ele>160.16</ele>
        <time>2019-12-20T09:04:35Z</time>
      </trkpt>
      <trkpt lat="43.28311" lon="2.47801">
        <ele>163.22</ele>
        <time>2019-12-20T09:04:45Z</time>
      </trkpt>
      <trkpt lat="43.28301" lon="2.47771">
        <ele>162.9</ele>
        <time>2019-12-20T09:04:55Z</time>
      </trkpt>
      <trkpt lat="43.28292" lon="2.47746">
        <ele>162.91</ele>
        <time>2019-12-20T09:05:05Z</time>
      </trkpt>
      <trkpt lat="43.28278" lon="2.4772">
        <ele>158.74</ele>
        <time>2019-12-20T09:05:15Z</time>
      </trkpt>
      <trkpt lat="43.2826" lon="2.47702">
        <ele>155.25</ele>
        <time>2019-12-20T09:05:25Z</time>
      </trkpt>
      <trkpt lat="43.28244" lon="2.47683">
        <ele>150.53</ele>
        <time>2019-12-20T09:05:35Z</time>
      </trkpt>
      <trkpt lat="43.28218" lon="2.47684">
        <ele>159.3</ele>
        <time>2019-12-20T09:05:45Z</time>
      </trkpt>
      <trkpt lat="43.28193" lon="2.47691">
        <ele>156.33</ele>
        <time>2019-12-20T09:05:55Z</time>
      </trkpt>
      <trkpt lat="43.28173" lon="2.4769">
        <ele>155.02</ele>
        <time>2019-12-20T09:06:05Z</time>
      </trkpt>
      <trkpt lat="43.28167" lon="2.47662">
        <ele>153.49</ele>
        <time>2019-12-20T09:06:15Z</time>
      </trkpt>
      <trkpt lat="43.28166" lon="2.4763">
        <ele>152.83</ele>
        <time>2019-12-20T09:06:25Z</time>
      </trkpt>
      <trkpt lat="43.28167" lon="2.47601">
        <ele>150.14</ele>
        <time>2019-12-20T09:06:35Z</time>
      </trkpt>
      <trkpt lat="43.2817" lon="2.47566">
        <ele>148.68</ele>
        <time>2019-12-20T09:06:45Z</time>
      </trkpt>
      <trkpt lat="43.2817" lon="2.47528">
        <ele>152.88</ele>
        <time>2019-12-20T09:06:55Z</time>
      </trkpt>
      <trkpt lat="43.2817" lon="2.47494">
        <ele>157.1</ele>
        <time>2019-12-20T09:07:05Z</time>
      </trkpt>
      <trkpt lat="43.2817" lon="2.47459">
        <ele>162.05</ele>
        <time>2019-12-20T09:07:15Z</time>
      </trkpt>
      <trkpt lat="43.2817" lon="2.47425">
        <ele>165.09</ele>
        <time>2019-12-20T09:07:25Z</time>
      </trkpt>
      <trkpt lat="43.2817" lon="2.47395">
        <ele>166.87</ele>
        <time>2019-12-20T09:07:35Z</time>
      </trkpt>
      <trkpt lat="43.2817" lon="2.47363">
        <ele>170.02</ele>
        <time>2019-12-20T09:07:45Z</time>
      </trkpt>
      <trkpt lat="43.28172" lon="2.47334">
        <ele>172.07</ele>
        <time>2019-12-20T09:07:55Z</time>
      </trkpt>
      <trkpt lat="43.28172" lon="2.47303">
        <ele>171.4</ele>
        <time>2019-12-20T09:08:05Z</time>
      </trkpt>
      <trkpt lat="43.28172" lon="2.47269">
        <ele>171.37</ele>
        <time>2019-12-20T09:08:15Z</time>
      </trkpt>
      <trkpt lat="43.28173" lon="2.47235">
        <ele>171.75</ele>
        <time>2019-12-20T09:08:25Z</time>
      </trkpt>
      <trkpt lat="43.28173" lon="2.47202">
        <ele>173.7</ele>
        <time>2019-12-20T09:08:35Z</time>
      </trkpt>
      <trkpt lat="43.28173" lon="2.47198">
        <ele>173.94</ele>
        <time>2019-12-20T09:08:36Z</time>
      </trkpt>
      <trkpt lat="43.28173" lon="2.47159">
        <ele>177.26</ele>
        <time>2019-12-20T09:08:47Z</time>
      </trkpt>
      <trkpt lat="43.28169" lon="2.4713">
        <ele>179.04</ele>
        <time>2019-12-20T09:08:57Z</time>
      </trkpt>
      <trkpt lat="43.28167" lon="2.47116">
        <ele>181.05</ele>
        <time>2019-12-20T09:09:07Z</time>
      </trkpt>
      <trkpt lat="43.28173" lon="2.47117">
        <ele>180.97</ele>
        <time>2019-12-20T09:09:17Z</time>
      </trkpt>
      <trkpt lat="43.2818" lon="2.47094">
        <ele>180.65</ele>
        <time>2019-12-20T09:09:27Z</time>
      </trkpt>
      <trkpt lat="43.28186" lon="2.47066">
        <ele>180.53</ele>
        <time>2019-12-20T09:09:37Z</time>
      </trkpt>
      <trkpt lat="43.28194" lon="2.47037">
        <ele>178.53</ele>
        <time>2019-12-20T09:09:47Z</time>
      </trkpt>
      <trkpt lat="43.28201" lon="2.47018">
        <ele>175.41</ele>
        <time>2019-12-20T09:09:57Z</time>
      </trkpt>
      <trkpt lat="43.28206" lon="2.46987">
        <ele>176.93</ele>
        <time>2019-12-20T09:10:07Z</time>
      </trkpt>
      <trkpt lat="43.28215" lon="2.46956">
        <ele>178.1</ele>
        <time>2019-12-20T09:10:17Z</time>
      </trkpt>
      <trkpt lat="43.28226" lon="2.4693">
        <ele>177.21</ele>
        <time>2019-12-20T09:10:27Z</time>
      </trkpt>
      <trkpt lat="43.28237" lon="2.46903">
        <ele>177.18</ele>
        <time>2019-12-20T09:10:37Z</time>
      </trkpt>
      <trkpt lat="43.28249" lon="2.46879">
        <ele>176.57</ele>
        <time>2019-12-20T09:10:47Z</time>
      </trkpt>
      <trkpt lat="43.28259" lon="2.46852">
        <ele>178.62</ele>
        <time>2019-12-20T09:10:57Z</time>
      </trkpt>
      <trkpt lat="43.28265" lon="2.46833">
        <ele>181.63</ele>
        <time>2019-12-20T09:11:07Z</time>
      </trkpt>
      <trkpt lat="43.28265" lon="2.4683">
        <ele>181.27</ele>
        <time>2019-12-20T09:11:17Z</time>
      </trkpt>
      <trkpt lat="43.28257" lon="2.46826">
        <ele>179.44</ele>
        <time>2019-12-20T09:11:27Z</time>
      </trkpt>
      <trkpt lat="43.28236" lon="2.46824">
        <ele>181.36</ele>
        <time>2019-12-20T09:11:37Z</time>
      </trkpt>
      <trkpt lat="43.28216" lon="2.46827">
        <ele>183.26</ele>
        <time>2019-12-20T09:11:47Z</time>
      </trkpt>
      <trkpt lat="43.282" lon="2.46834">
        <ele>184.5</ele>
        <time>2019-12-20T09:11:57Z</time>
      </trkpt>
      <trkpt lat="43.28193" lon="2.46838">
        <ele>184.4</ele>
        <time>2019-12-20T09:12:07Z</time>
      </trkpt>
      <trkpt lat="43.28194" lon="2.46834">
        <ele>182.9</ele>
        <time>2019-12-20T09:12:17Z</time>
      </trkpt>
      <trkpt lat="43.28197" lon="2.46825">
        <ele>182.34</ele>
        <time>2019-12-20T09:12:27Z</time>
      </trkpt>
      <trkpt lat="43.28213" lon="2.46815">
        <ele>182.24</ele>
        <time>2019-12-20T09:12:37Z</time>
      </trkpt>
      <trkpt lat="43.28225" lon="2.4681">
        <ele>181.82</ele>
        <time>2019-12-20T09:12:47Z</time>
      </trkpt>
      <trkpt lat="43.28244" lon="2.468">
        <ele>182.37</ele>
        <time>2019-12-20T09:12:57Z</time>
      </trkpt>
      <trkpt lat="43.28264" lon="2.46781">
        <ele>180.58</ele>
        <time>2019-12-20T09:13:07Z</time>
      </trkpt>
      <trkpt lat="43.28276" lon="2.46758">
        <ele>180.79</ele>
        <time>2019-12-20T09:13:17Z</time>
      </trkpt>
      <trkpt lat="43.28261" lon="2.46728">
        <ele>183.54</ele>
        <time>2019-12-20T09:13:27Z</time>
      </trkpt>
      <trkpt lat="43.28245" lon="2.46702">
        <ele>183.53</ele>
        <time>2019-12-20T09:13:37Z</time>
      </trkpt>
      <trkpt lat="43.2823" lon="2.4668">
        <ele>182.62</ele>
        <time>2019-12-20T09:13:47Z</time>
      </trkpt>
      <trkpt lat="43.28214" lon="2.46669">
        <ele>183</ele>
        <time>2019-12-20T09:13:57Z</time>
      </trkpt>
      <trkpt lat="43.28194" lon="2.46657">
        <ele>186.3</ele>
        <time>2019-12-20T09:14:07Z</time>
      </trkpt>
      <trkpt lat="43.28175" lon="2.4664">
        <ele>186.48</ele>
        <time>2019-12-20T09:14:17Z</time>
      </trkpt>
      <trkpt lat="43.28152" lon="2.46623">
        <ele>186.37</ele>
        <time>2019-12-20T09:14:27Z</time>
      </trkpt>
      <trkpt lat="43.28129" lon="2.46618">
        <ele>189.54</ele>
        <time>2019-12-20T09:14:37Z</time>
      </trkpt>
      <trkpt lat="43.28114" lon="2.46613">
        <ele>190.26</ele>
        <time>2019-12-20T09:14:47Z</time>
      </trkpt>
      <trkpt lat="43.28111" lon="2.46608">
        <ele>188.99</ele>
        <time>2019-12-20T09:14:57Z</time>
      </trkpt>
      <trkpt lat="43.28118" lon="2.46585">
        <ele>188.93</ele>
        <time>2019-12-20T09:15:07Z</time>
      </trkpt>
      <trkpt lat="43.28127" lon="2.46552">
        <ele>185.18</ele>
        <time>2019-12-20T09:15:17Z</time>
      </trkpt>
      <trkpt lat="43.28128" lon="2.46516">
        <ele>184.01</ele>
        <time>2019-12-20T09:15:27Z</time>
      </trkpt>
      <trkpt lat="43.28128" lon="2.4648">
        <ele>187.04</ele>
        <time>2019-12-20T09:15:37Z</time>
      </trkpt>
      <trkpt lat="43.28119" lon="2.46443">
        <ele>189.45</ele>
        <time>2019-12-20T09:15:47Z</time>
      </trkpt>
      <trkpt lat="43.2811" lon="2.46412">
        <ele>189.31</ele>
        <time>2019-12-20T09:15:57Z</time>
      </trkpt>
      <trkpt lat="43.28101" lon="2.46381">
        <ele>190.98</ele>
        <time>2019-12-20T09:16:07Z</time>
      </trkpt>
      <trkpt lat="43.28093" lon="2.4635">
        <ele>191.87</ele>
        <time>2019-12-20T09:16:17Z</time>
      </trkpt>
      <trkpt lat="43.28092" lon="2.46347">
        <ele>191.8</ele>
        <time>2019-12-20T09:16:18Z</time>
      </trkpt>
      <trkpt lat="43.28086" lon="2.46329">
        <ele>190.08</ele>
        <time>2019-12-20T09:16:29Z</time>
      </trkpt>
      <trkpt lat="43.28075" lon="2.46308">
        <ele>188.28</ele>
        <time>2019-12-20T09:16:39Z</time>
      </trkpt>
      <trkpt lat="43.28069" lon="2.46283">
        <ele>185.38</ele>
        <time>2019-12-20T09:16:49Z</time>
      </trkpt>
      <trkpt lat="43.28071" lon="2.46254">
        <ele>184.63</ele>
        <time>2019-12-20T09:16:59Z</time>
      </trkpt>
      <trkpt lat="43.28072" lon="2.46224">
        <ele>185.12</ele>
        <time>2019-12-20T09:17:09Z</time>
      </trkpt>
      <trkpt lat="43.28073" lon="2.4621">
        <ele>185.33</ele>
        <time>2019-12-20T09:17:19Z</time>
      </trkpt>
      <trkpt lat="43.28064" lon="2.46185">
        <ele>185.27</ele>
        <time>2019-12-20T09:17:29Z</time>
      </trkpt>
      <trkpt lat="43.28054" lon="2.46159">
        <ele>183.86</ele>
        <time>2019-12-20T09:17:39Z</time>
      </trkpt>
      <trkpt lat="43.28041" lon="2.46131">
        <ele>179.51</ele>
        <time>2019-12-20T09:17:49Z</time>
      </trkpt>
      <trkpt lat="43.28028" lon="2.46107">
        <ele>173.3</ele>
        <time>2019-12-20T09:17:59Z</time>
      </trkpt>
      <trkpt lat="43.28016" lon="2.46078">
        <ele>167.19</ele>
        <time>2019-12-20T09:18:09Z</time>
      </trkpt>
      <trkpt lat="43.27995" lon="2.46052">
        <ele>170.4</ele>
        <time>2019-12-20T09:18:19Z</time>
      </trkpt>
      <trkpt lat="43.27974" lon="2.4603">
        <ele>169.69</ele>
        <time>2019-12-20T09:18:29Z</time>
      </trkpt>
      <trkpt lat="43.27955" lon="2.46001">
        <ele>169.92</ele>
        <time>2019-12-20T09:18:39Z</time>
      </trkpt>
      <trkpt lat="43.27933" lon="2.45978">
        <ele>172.45</ele>
        <time>2019-12-20T09:18:49Z</time>
      </trkpt>
      <trkpt lat="43.27914" lon="2.45965">
        <ele>168</ele>
        <time>2019-12-20T09:18:59Z</time>
      </trkpt>
      <trkpt lat="43.27901" lon="2.45939">
        <ele>165.05</ele>
        <time>2019-12-20T09:19:09Z</time>
      </trkpt>
      <trkpt lat="43.27901" lon="2.45907">
        <ele>168.44</ele>
        <time>2019-12-20T09:19:19Z</time>
      </trkpt>
      <trkpt lat="43.27901" lon="2.45882">
        <ele>166.57</ele>
        <time>2019-12-20T09:19:29Z</time>
      </trkpt>
      <trkpt lat="43.27883" lon="2.45867">
        <ele>166.32</ele>
        <time>2019-12-20T09:19:39Z</time>
      </trkpt>
      <trkpt lat="43.27879" lon="2.4586">
        <ele>165.57</ele>
        <time>2019-12-20T09:19:49Z</time>
      </trkpt>
      <trkpt lat="43.27879" lon="2.45859">
        <ele>165.44</ele>
        <time>2019-12-20T09:19:53Z</time>
      </trkpt>
    </trkseg>
  </trk>
</gpx>